• Join FlightAware (Why Join?)
  • Login
  • US Flag 
02:00PM EDT


 

Airport Tracker/Info


-or-


 

Live Flight TrackerFlight Track Log ✈ SIA21 ✈ 02-Nov-2013 ✈ KEWR - WSSS / SIN

Flight Track Log - Related Links

Times and Time Zones

All times are in EDT time to prevent confusion due to time zone crossing. See the SIA21 flight status page for this flight to view local times or setup timezone preferences in your user account.

Time Position Orientation Groundspeed Altitude Reporting Facility
EDT Latitude Longitude Course Direction KTS MPH feet Rate Location/Type
11:10PM 40.6314 -74.2000 201° Southwest 187 215 2,100  Level FlightAware ADS-B
11:10PM 40.6289 -74.2049 236° Southwest 188 216 2,100  Level FlightAware ADS-B
11:10PM 40.6277 -74.2090 249° West 189 217 2,100 480 Level FlightAware ADS-B
11:11PM 40.6322 -74.2313 285° West 197 227 2,300 600 Climbing FlightAware ADS-B
11:11PM 40.6380 -74.2392 314° West 209 241 2,400 1,380 Climbing FlightAware ADS-B
11:12PM 40.7225 -74.2217 North 266 306 4,500 1,560 Climbing FlightAware ADS-B
11:13PM 40.7395 -74.2089 30° Northeast 278 320 5,000 2,160 Climbing FlightAware ADS-B
11:13PM 40.7569 -74.1959 30° Northeast 280 322 5,600 2,400 Climbing FlightAware ADS-B
11:13PM 40.7758 -74.1817 30° Northeast 281 323 6,300 1,980 Climbing FlightAware ADS-B
11:13PM 40.7944 -74.1677 30° Northeast 290 334 6,700 1,680 Climbing FlightAware ADS-B
11:14PM 40.8124 -74.1544 29° Northeast 295 339 7,200 1,980 Climbing FlightAware ADS-B
11:14PM 40.8291 -74.1397 34° Northeast 302 348 7,700 1,980 Climbing FlightAware ADS-B
11:14PM 40.8329 -74.1347 45° Northeast 304 350 7,800 1,500 Climbing FlightAware ADS-B
11:14PM 40.8367 -74.1287 50° Northeast 306 352 7,900 1,980 Climbing FlightAware ADS-B
11:14PM 40.8409 -74.1207 55° Northeast 307 353 8,100 1,980 Climbing FlightAware ADS-B
11:14PM 40.8525 -74.0965 58° Northeast 311 358 8,600 1,980 Climbing FlightAware ADS-B
11:15PM 40.8615 -74.0773 58° Northeast 314 361 9,000 2,040 Climbing FlightAware ADS-B
11:15PM 40.8730 -74.0526 58° Northeast 320 368 9,500 1,740 Climbing FlightAware ADS-B
11:15PM 40.8853 -74.0259 59° Northeast 328 377 9,900 1,380 Climbing FlightAware ADS-B
11:16PM 40.9099 -73.9730 58° Northeast 343 395 10,600 1,140 Climbing FlightAware ADS-B
11:16PM 40.9323 -73.9247 58° Northeast 363 418 11,000 900 Climbing FlightAware ADS-B
11:17PM 40.9645 -73.8678 53° Northeast 386 444 11,500 1,080 Climbing FlightAware ADS-B
11:17PM 40.9982 -73.8097 52° Northeast 400 460 12,100 1,560 Climbing FlightAware ADS-B
11:18PM 41.0460 -73.7265 53° Northeast 384 442 13,400 1,800 Climbing FlightAware ADS-B (KWWD)
11:18PM 41.0810 -73.6660 52° Northeast 418 481 14,300 1,800 Climbing FlightAware
11:19PM 41.1280 -73.5730 56° Northeast 423 487 15,700 1,740 Climbing FlightAware
11:20PM 41.1998 -73.4303 56° Northeast 437 503 17,500 1,500 Climbing FlightAware ADS-B (KSNC)
11:21PM 41.2519 -73.3275 56° Northeast 449 517 18,500 1,080 Climbing FlightAware ADS-B (KSNC)
11:21PM 41.2847 -73.2624 56° Northeast 464 534 18,900 900 Climbing FlightAware ADS-B (KSNC)
11:22PM 41.3394 -73.1537 56° Northeast 482 555 19,600 900 Climbing FlightAware ADS-B (KSNC)
11:23PM 41.3770 -73.0786 56° Northeast 497 572 20,000 660 Climbing FlightAware ADS-B (KSNC)
11:23PM 41.4258 -72.9811 56° Northeast 517 595 20,400 720 Climbing FlightAware ADS-B (KSNC)
11:24PM 41.4996 -72.8329 56° Northeast 541 623 21,100 780 Climbing FlightAware ADS-B (KSNC)
11:25PM 41.5369 -72.7579 56° Northeast 551 634 21,500 960 Climbing FlightAware ADS-B (KSNC)
11:25PM 41.6024 -72.6254 56° Northeast 562 647 22,300 1,080 Climbing FlightAware ADS-B (KSNC)
11:26PM 41.6465 -72.5359 57° Northeast 565 650 22,900 1,140 Climbing FlightAware ADS-B (KSNC)
11:26PM 41.6885 -72.4482 57° Northeast 571 657 23,500 960 Climbing FlightAware ADS-B (KSNC)
11:27PM 41.7228 -72.3951 49° Northeast 588 677 23,700 720 Climbing FlightAware ADS-B (KSNC)
11:27PM 41.7949 -72.3111 41° Northeast 598 688 24,200 840 Climbing FlightAware ADS-B (KSNC)
11:28PM 41.8689 -72.2239 41° Northeast 606 697 24,700 660 Climbing FlightAware ADS-B
11:28PM 41.9379 -72.1424 41° Northeast 615 708 25,000 780 Climbing FlightAware ADS-B (KSNC)
11:29PM 42.0217 -72.0436 41° Northeast 621 715 25,700 960 Climbing FlightAware ADS-B (KSNC)
11:30PM 42.1669 -71.8699 42° Northeast 631 726 26,700 960 Climbing FlightAware ADS-B (KSNC)
11:31PM 42.2539 -71.7644 42° Northeast 629 724 27,500 1,020 Climbing FlightAware ADS-B
11:31PM 42.3238 -71.6795 42° Northeast 634 730 28,000 1,200 Climbing FlightAware ADS-B (KSNC)
11:32PM 42.4061 -71.5793 42° Northeast 628 723 28,900 1,320 Climbing FlightAware ADS-B
11:32PM 42.4710 -71.4999 42° Northeast 626 720 29,500 960 Climbing FlightAware ADS-B
11:33PM 42.5329 -71.4240 42° Northeast 628 723 29,900 960 Climbing FlightAware ADS-B
11:33PM 42.5993 -71.3423 42° Northeast 619 712 30,500 1,140 Climbing FlightAware ADS-B
11:34PM 42.6445 -71.2867 42° Northeast 617 710 30,900 960 Climbing FlightAware ADS-B
11:34PM 42.6611 -71.2663 42° Northeast 624 718 31,000 120 Climbing FlightAware ADS-B
11:34PM 42.7302 -71.1807 42° Northeast 633 728 31,000  Level FlightAware ADS-B
11:35PM 42.8170 -71.0730 42° Northeast 637 733 31,000  Level FlightAware ADS-B
11:36PM 42.8831 -70.9907 42° Northeast 638 734 31,000  Level FlightAware ADS-B
11:36PM 42.9578 -70.8973 42° Northeast 638 734 31,000  Level FlightAware ADS-B (KBOS)
11:37PM 43.0228 -70.8158 42° Northeast 636 732 31,000  Level FlightAware ADS-B (KBOS)
11:37PM 43.0956 -70.7245 43° Northeast 637 733 31,000  Level FlightAware ADS-B
11:38PM 43.1598 -70.6432 43° Northeast 635 731 31,000  Level FlightAware ADS-B
11:38PM 43.2289 -70.5561 43° Northeast 635 731 31,000  Level FlightAware ADS-B
11:39PM 43.2935 -70.4738 43° Northeast 638 734 31,000  Level FlightAware ADS-B
11:39PM 43.3418 -70.4123 43° Northeast 637 733 31,000  Level FlightAware ADS-B
11:40PM 43.4453 -70.2803 43° Northeast 637 733 31,000  Level FlightAware ADS-B
11:41PM 43.5192 -70.1854 43° Northeast 642 739 31,000  Level FlightAware ADS-B (KBOS)
11:41PM 43.5711 -70.1188 43° Northeast 637 733 31,000  Level FlightAware ADS-B (KBOS)
11:42PM 43.6590 -70.0051 43° Northeast 635 731 31,000  Level FlightAware ADS-B (CYQI)
11:42PM 43.7153 -69.9322 43° Northeast 637 733 31,000  Level FlightAware ADS-B (CYQI)
11:43PM 43.7894 -69.8361 43° Northeast 635 731 31,000  Level FlightAware ADS-B
11:43PM 43.8001 -69.8222 43° Northeast 635 731 31,000  Level FlightAware ADS-B (CYQI)
11:43PM 43.8752 -69.7241 43° Northeast 630 725 31,000  Level FlightAware ADS-B
11:44PM 43.9389 -69.6407 43° Northeast 637 733 31,000  Level FlightAware ADS-B
11:44PM 44.0247 -69.5280 43° Northeast 630 725 31,000  Level FlightAware ADS-B
11:45PM 44.1096 -69.4159 43° Northeast 639 735 31,000  Level FlightAware ADS-B (CYQI)
11:46PM 44.1737 -69.3311 43° Northeast 633 728 31,000  Level FlightAware ADS-B
11:46PM 44.2374 -69.2466 44° Northeast 633 728 31,000  Level FlightAware ADS-B
11:47PM 44.3018 -69.1608 44° Northeast 634 730 31,000  Level FlightAware ADS-B
11:47PM 44.3244 -69.1305 44° Northeast 639 735 31,000  Level FlightAware ADS-B (CYQI)
11:47PM 44.3863 -69.0478 44° Northeast 634 730 31,000  Level FlightAware ADS-B
11:48PM 44.4787 -68.9236 44° Northeast 639 735 31,000  Level FlightAware ADS-B (CYQI)
11:49PM 44.5440 -68.8350 44° Northeast 638 734 31,000  Level FlightAware
11:49PM 44.5951 -68.7664 44° Northeast 637 733 31,000  Level FlightAware ADS-B (CYQI)
11:50PM 44.6941 -68.6321 44° Northeast 637 733 31,000  Level FlightAware ADS-B (KBGR)
11:50PM 44.7643 -68.5365 44° Northeast 638 734 31,000  Level FlightAware ADS-B (CYSG)
11:51PM 44.8287 -68.4482 44° Northeast 641 738 31,000  Level FlightAware ADS-B (CYQI)
11:51PM 44.9136 -68.3317 44° Northeast 643 740 31,000  Level FlightAware ADS-B (CYSG)
11:52PM 44.9874 -68.2299 44° Northeast 641 738 31,000  Level FlightAware ADS-B (KBGR)
11:52PM 45.0444 -68.1510 44° Northeast 639 735 31,000  Level FlightAware ADS-B (CYQI)
11:53PM 45.1181 -68.0486 44° Northeast 641 738 31,000  Level FlightAware ADS-B (KBGR)
11:54PM 45.2043 -67.9286 44° Northeast 641 738 31,000  Level FlightAware ADS-B (KBGR)
11:54PM 45.2793 -67.8236 45° Northeast 641 738 31,000  Level FlightAware ADS-B (KBGR)
11:55PM 45.3450 -67.7310 45° Northeast 642 739 31,000  Level FlightAware
11:55PM 45.4039 -67.6300 50° Northeast 642 739 31,000  Level FlightAware ADS-B (CYSG)
11:56PM 45.4930 -67.4960 47° Northeast 643 740 31,000  Level FlightAware
11:56PM 45.5030 -67.4800 48° Northeast 643 740 31,000  Level FlightAware
11:57PM 45.6560 -67.2400 48° Northeast 640 736 31,000  Level FlightAware
11:58PM 45.7110 -67.1520 48° Northeast 639 735 31,000  Level FlightAware
11:59PM 45.8390 -66.9470 48° Northeast 642 739 31,000  Level FlightAware
12:00AM 45.9260 -66.8050 49° Northeast 644 741 31,000  Level FlightAware
12:00AM 45.9820 -66.7160 48° Northeast 646 743 31,000  Level FlightAware
12:01AM 46.0990 -66.5240 49° Northeast 646 743 31,000  Level FlightAware
12:02AM 46.1950 -66.3670 49° Northeast 649 747 31,000  Level FlightAware
12:03AM 46.3000 -66.1940 49° Northeast 652 750 31,000  Level FlightAware
12:03AM 46.3470 -66.1160 49° Northeast 653 751 31,000  Level FlightAware
12:04AM 46.4050 -66.0200 49° Northeast 652 750 31,000 300 Level FlightAware
12:05AM 46.5150 -65.8360 49° Northeast 650 748 31,500 480 Climbing FlightAware
12:05AM 46.5910 -65.7080 49° Northeast 657 756 31,800 780 Climbing FlightAware
12:06AM 46.6860 -65.5490 49° Northeast 650 748 32,700 720 Climbing FlightAware
12:07AM 46.7750 -65.3970 49° Northeast 647 745 33,000 120 Climbing FlightAware
12:08AM 46.9090 -65.1680 49° Northeast 645 742 33,000  Level FlightAware
12:09AM 46.9970 -65.0150 50° Northeast 647 745 33,000  Level FlightAware
12:09AM 47.0310 -64.9580 49° Northeast 647 745 33,000  Level FlightAware
12:10AM 47.1430 -64.7620 50° Northeast 646 743 33,000  Level FlightAware
12:11AM 47.2400 -64.5940 50° Northeast 647 745 33,000  Level FlightAware
12:12AM 47.3230 -64.4480 50° Northeast 646 743 33,000  Level FlightAware
12:12AM 47.4080 -64.2960 50° Northeast 649 747 33,000  Level FlightAware
12:13AM 47.5000 -64.1340 50° Northeast 649 747 33,000  Level FlightAware
12:14AM 47.5740 -64.0000 51° Northeast 649 747 33,000  Level FlightAware
12:15AM 47.6810 -63.8070 50° Northeast 650 748 33,000  Level FlightAware
12:15AM 47.7410 -63.6990 50° Northeast 650 748 33,000  Level FlightAware
12:16AM 47.7980 -63.5960 50° Northeast 650 748 33,000  Level FlightAware
12:17AM 47.8960 -63.4170 51° Northeast 650 748 33,000  Level FlightAware
12:17AM 47.9870 -63.2500 51° Northeast 647 745 33,000  Level FlightAware
12:18AM 48.0700 -63.0950 51° Northeast 645 742 33,000  Level FlightAware
12:19AM 48.1650 -62.9190 51° Northeast 645 742 33,000  Level FlightAware
12:20AM 48.2460 -62.7680 51° Northeast 646 743 33,000  Level FlightAware
12:21AM 48.3370 -62.5960 51° Northeast 647 745 33,000  Level FlightAware
12:21AM 48.4100 -62.4580 51° Northeast 647 745 33,000  Level FlightAware
12:22AM 48.5230 -62.2420 52° Northeast 647 745 33,000  Level FlightAware
12:23AM 48.5800 -62.1340 51° Northeast 645 742 33,000  Level FlightAware
12:24AM 48.6880 -61.9240 52° Northeast 646 743 33,000  Level FlightAware
12:24AM 48.7300 -61.8440 51° Northeast 647 745 33,000  Level FlightAware
12:25AM 48.8130 -61.6820 52° Northeast 648 746 33,000  Level FlightAware
12:26AM 48.9090 -61.4930 52° Northeast 648 746 33,000  Level FlightAware
12:26AM 48.9720 -61.3690 52° Northeast 647 745 33,000  Level FlightAware
12:27AM 49.0470 -61.2210 52° Northeast 648 746 33,000  Level FlightAware
12:28AM 49.1050 -61.1070 52° Northeast 648 746 33,000  Level FlightAware
12:29AM 49.1990 -60.9230 52° Northeast 648 746 33,000  Level FlightAware
12:29AM 49.2740 -60.7750 52° Northeast 648 746 33,000  Level FlightAware
12:30AM 49.3490 -60.6270 52° Northeast 648 746 33,000  Level FlightAware
12:31AM 49.3870 -60.5530 52° Northeast 648 746 33,000  Level FlightAware
12:31AM 49.4430 -60.4420 52° Northeast 648 746 33,000  Level FlightAware
12:32AM 49.5390 -60.2540 52° Northeast 648 746 33,000  Level FlightAware
12:33AM 49.5770 -60.1790 52° Northeast 648 746 33,000  Level FlightAware
12:33AM 49.6540 -60.0270 52° Northeast 648 746 33,000  Level FlightAware
12:34AM 49.7290 -59.8780 52° Northeast 648 746 33,000  Level FlightAware
12:35AM 49.8040 -59.7290 52° Northeast 648 746 33,000  Level FlightAware
12:36AM 49.8610 -59.6170 52° Northeast 648 746 33,000  Level FlightAware
12:36AM 49.9360 -59.4670 52° Northeast 648 746 33,000  Level FlightAware
12:37AM 50.1000 -59.0167 52° Northeast 640 736 33,000  Level Gander Center
12:38AM 50.2000 -58.7667 58° Northeast 640 736 33,000  Level Gander Center
12:39AM 50.2833 -58.5333 61° Northeast 640 736 33,000  Level Gander Center
12:40AM 50.3833 -58.3167 54° Northeast 640 736 33,000  Level Gander Center
12:41AM 50.4833 -58.0833 56° Northeast 640 736 33,000  Level Gander Center
12:42AM 50.5667 -57.8333 62° Northeast 640 736 33,000  Level Gander Center
12:43AM 50.6833 -57.5833 54° Northeast 640 736 33,000  Level Gander Center
12:44AM 50.7500 -57.3500 66° East 640 736 33,000  Level Gander Center
12:45AM 50.8500 -57.1167 56° Northeast 640 736 33,000  Level Gander Center
12:46AM 50.9500 -56.8667 58° Northeast 640 736 33,000  Level Gander Center
12:47AM 51.0333 -56.6333 60° Northeast 640 736 33,000  Level Gander Center
12:48AM 51.1333 -56.3833 57° Northeast 640 736 33,000  Level Gander Center
12:49AM 51.2333 -56.1500 56° Northeast 640 736 33,000  Level Gander Center
12:50AM 51.3167 -55.8667 65° Northeast 640 736 33,000  Level Gander Center
12:51AM 51.4000 -55.6500 58° Northeast 640 736 33,000  Level Gander Center
12:52AM 51.5000 -55.3667 60° Northeast 640 736 33,000  Level Gander Center
12:53AM 51.5833 -55.1500 58° Northeast 650 748 33,000  Level Gander Center
12:54AM 51.6667 -54.8833 63° Northeast 650 748 33,000  Level Gander Center
12:55AM 51.7500 -54.6333 62° Northeast 640 736 33,000  Level Gander Center
12:56AM 51.8500 -54.4000 55° Northeast 650 748 33,000  Level Gander Center
12:57AM 51.9500 -54.1167 60° Northeast 640 736 33,000  Level Gander Center
12:58AM 52.0333 -53.8833 60° Northeast 640 736 33,000  Level Gander Center
12:59AM 52.1167 -53.6167 63° Northeast 650 748 33,000  Level Gander Center
01:00AM 52.2000 -53.3667 61° Northeast 640 736 33,000  Level Gander Center
01:01AM 52.2667 -53.1000 68° East 640 736 33,000  Level Gander Center
01:02AM 52.3333 -52.8167 69° East 650 748 33,000  Level Gander Center
01:03AM 52.3833 -52.5500 73° East 650 748 33,000  Level Gander Center
01:04AM 52.4667 -52.2667 64° Northeast 650 748 33,000  Level Gander Center
01:05AM 52.5833 -51.8000 67° East 660 760 33,000  Level Gander Center
01:06AM 52.6000 -51.6833 77° East 660 760 33,000  Level Gander Center
01:07AM 52.6500 -51.4000 74° East 650 748 33,000  Level Gander Center
01:08AM 52.7167 -51.1000 70° East 650 748 33,000  Level Gander Center
01:10AM 52.7833 -50.7833 71° East 370 426 33,000  Level Gander Center
01:11AM 52.8667 -50.4500 67° East 670 771 33,000  Level Gander Center
01:12AM 52.9000 -50.1667 79° East 650 748 33,000  Level Gander Center
01:13AM 52.9500 -49.9000 73° East 640 736 33,000  Level Gander Center
01:15AM 53.0385 -49.5574 67° East  Level FlightAware Approximate
01:20AM 53.0000 -50.0000 67° East 603 694 33,000  Level ETMS Enhanced Traffic Management System
01:22AM 53.4297 -47.9755 67° East  Level FlightAware Approximate
01:23AM 53.4839 -47.7472 68° East  Level FlightAware Approximate
01:24AM 53.5376 -47.5183 68° East  Level FlightAware Approximate
01:25AM 53.5909 -47.2888 69° East  Level FlightAware Approximate
01:26AM 53.8537 -46.3306 70° East 603 694 33,000  Level FlightAware Transoceanic
01:27AM 53.9103 -46.0629 70° East 603 694 33,000  Level FlightAware Transoceanic
01:28AM 53.9663 -45.7946 71° East 603 694 33,000  Level FlightAware Transoceanic
01:29AM 54.0218 -45.5254 71° East 603 694 33,000  Level FlightAware Transoceanic
01:30AM 54.0766 -45.2556 71° East 603 694 33,000  Level FlightAware Transoceanic
01:31AM 54.1308 -44.9851 71° East 603 694 33,000  Level FlightAware Transoceanic
01:32AM 54.1844 -44.7138 71° East 603 694 33,000  Level FlightAware Transoceanic
01:33AM 54.2374 -44.4419 72° East 603 694 33,000  Level FlightAware Transoceanic
01:34AM 54.2898 -44.1693 72° East 603 694 33,000  Level FlightAware Transoceanic
01:35AM 54.3415 -43.8959 72° East 603 694 33,000  Level FlightAware Transoceanic
01:36AM 54.3927 -43.6219 72° East 603 694 33,000  Level FlightAware Transoceanic
01:37AM 54.4432 -43.3472 73° East 603 694 33,000  Level FlightAware Transoceanic
01:38AM 54.4931 -43.0719 73° East 603 694 33,000  Level FlightAware Transoceanic
01:39AM 54.5424 -42.7958 73° East 603 694 33,000  Level FlightAware Transoceanic
01:40AM 54.5910 -42.5191 73° East 603 694 33,000  Level FlightAware Transoceanic
01:41AM 54.6390 -42.2418 73° East 603 694 33,000  Level FlightAware Transoceanic
01:42AM 54.6864 -41.9638 74° East 603 694 33,000  Level FlightAware Transoceanic
01:43AM 54.7331 -41.6851 74° East 603 694 33,000  Level FlightAware Transoceanic
01:44AM 54.7792 -41.4058 74° East 603 694 33,000  Level FlightAware Transoceanic
01:45AM 54.8247 -41.1259 74° East 603 694 33,000  Level FlightAware Transoceanic
01:46AM 54.8695 -40.8453 75° East 603 694 33,000  Level FlightAware Transoceanic
01:47AM 54.9136 -40.5642 75° East 603 694 33,000  Level FlightAware Transoceanic
01:48AM 54.9571 -40.2824 75° East 603 694 33,000  Level FlightAware Transoceanic
01:49AM 54.9946 -40.0359 75° East  Level FlightAware Approximate
01:49AM 55.0000 -40.0000 57° Northeast 550 633 33,000  Level ETMS Enhanced Traffic Management System
01:50AM 55.0316 -39.7889 75° East  Level FlightAware Approximate
01:51AM 55.0559 -39.8474 57° Northeast  Level FlightAware Approximate
01:52AM 55.1343 -39.6315 57° Northeast  Level FlightAware Approximate
01:53AM 55.2124 -39.4148 58° Northeast  Level FlightAware Approximate
01:54AM 55.2901 -39.1972 58° Northeast  Level FlightAware Approximate
01:55AM 55.3674 -38.9787 58° Northeast  Level FlightAware Approximate
01:56AM 55.6466 -38.1731 59° Northeast 550 633 33,000  Level FlightAware Transoceanic
01:57AM 55.7255 -37.9406 59° Northeast 550 633 33,000  Level FlightAware Transoceanic
01:58AM 55.8040 -37.7071 59° Northeast 550 633 33,000  Level FlightAware Transoceanic
01:59AM 55.8820 -37.4726 59° Northeast 550 633 33,000  Level FlightAware Transoceanic
01:00AM 55.9595 -37.2372 60° Northeast 550 633 33,000  Level FlightAware Transoceanic
01:01AM 56.0367 -37.0009 60° Northeast 550 633 33,000  Level FlightAware Transoceanic
01:02AM 56.1133 -36.7636 60° Northeast 550 633 33,000  Level FlightAware Transoceanic
01:03AM 56.1895 -36.5254 60° Northeast 550 633 33,000  Level FlightAware Transoceanic
01:04AM 56.2653 -36.2863 60° Northeast 550 633 33,000  Level FlightAware Transoceanic
01:05AM 56.3405 -36.0461 61° Northeast 550 633 33,000  Level FlightAware Transoceanic
01:06AM 56.4153 -35.8051 61° Northeast 550 633 33,000  Level FlightAware Transoceanic
01:07AM 56.4897 -35.5631 61° Northeast 550 633 33,000  Level FlightAware Transoceanic
01:08AM 56.5635 -35.3201 61° Northeast 550 633 33,000  Level FlightAware Transoceanic
01:09AM 56.6369 -35.0762 61° Northeast 550 633 33,000  Level FlightAware Transoceanic
01:10AM 56.7099 -34.8314 62° Northeast 550 633 33,000  Level FlightAware Transoceanic
01:11AM 56.7823 -34.5856 62° Northeast 550 633 33,000  Level FlightAware Transoceanic
01:12AM 56.8542 -34.3389 62° Northeast 550 633 33,000  Level FlightAware Transoceanic
01:13AM 56.9257 -34.0912 62° Northeast 550 633 33,000  Level FlightAware Transoceanic
01:14AM 56.9967 -33.8426 62° Northeast 550 633 33,000  Level FlightAware Transoceanic
01:15AM 57.0671 -33.5930 63° Northeast 550 633 33,000  Level FlightAware Transoceanic
01:16AM 57.1371 -33.3425 63° Northeast 550 633 33,000  Level FlightAware Transoceanic
01:17AM 57.2066 -33.0910 63° Northeast 550 633 33,000  Level FlightAware Transoceanic
01:18AM 57.2756 -32.8386 63° Northeast 550 633 33,000  Level FlightAware Transoceanic
01:19AM 57.3440 -32.5852 64° Northeast 550 633 33,000  Level FlightAware Transoceanic
01:20AM 57.4120 -32.3309 64° Northeast 550 633 33,000  Level FlightAware Transoceanic
01:21AM 57.4794 -32.0757 64° Northeast 550 633 33,000  Level FlightAware Transoceanic
01:22AM 57.5463 -31.8195 64° Northeast 550 633 33,000  Level FlightAware Transoceanic
01:23AM 57.6127 -31.5624 64° Northeast 550 633 33,000  Level FlightAware Transoceanic
01:24AM 57.6786 -31.3043 65° Northeast 550 633 33,000  Level FlightAware Transoceanic
01:25AM 57.7439 -31.0453 65° Northeast 550 633 33,000  Level FlightAware Transoceanic
01:26AM 57.8088 -30.7854 65° Northeast 550 633 33,000  Level FlightAware Transoceanic
01:27AM 57.8731 -30.5245 65° Northeast 550 633 33,000  Level FlightAware Transoceanic
01:28AM 57.9368 -30.2627 65° Northeast 550 633 33,000  Level FlightAware Transoceanic
01:29AM 57.9973 -30.0115 65° Northeast  Level FlightAware Approximate
01:30AM 58.0572 -29.7593 66° East  Level FlightAware Approximate
01:31AM 58.0568 -29.7728 65° Northeast  Level FlightAware Approximate
01:32AM 58.1187 -29.5220 65° Northeast  Level FlightAware Approximate
01:33AM 58.1802 -29.2703 65° Northeast  Level FlightAware Approximate
01:34AM 58.2412 -29.0178 65° Northeast  Level FlightAware Approximate
01:35AM 58.3017 -28.7644 65° Northeast  Level FlightAware Approximate
01:36AM 58.3616 -28.5101 66° East  Level FlightAware Approximate
01:37AM 58.4211 -28.2550 66° East  Level FlightAware Approximate
01:38AM 58.4801 -27.9990 66° East  Level FlightAware Approximate
01:39AM 58.5385 -27.7421 66° East  Level FlightAware Approximate
01:40AM 58.5965 -27.4844 67° East  Level FlightAware Approximate
01:41AM 58.6539 -27.2259 67° East  Level FlightAware Approximate
01:41AM 58.0000 -30.0000 65° Northeast 496 571 33,000  Level ETMS Enhanced Traffic Management System
01:42AM 58.7108 -26.9665 67° East  Level FlightAware Approximate
01:43AM 58.7672 -26.7062 67° East  Level FlightAware Approximate
01:44AM 58.8230 -26.4451 67° East  Level FlightAware Approximate
01:45AM 58.8784 -26.1832 68° East  Level FlightAware Approximate
01:46AM 58.9332 -25.9204 68° East  Level FlightAware Approximate
01:47AM 58.8918 -26.1406 68° East 496 571 33,000  Level FlightAware Transoceanic
01:48AM 58.9436 -25.8930 68° East 496 571 33,000  Level FlightAware Transoceanic
01:49AM 58.9950 -25.6446 68° East 496 571 33,000  Level FlightAware Transoceanic
01:50AM 59.0459 -25.3955 68° East 496 571 33,000  Level FlightAware Transoceanic
01:51AM 59.0963 -25.1456 69° East 496 571 33,000  Level FlightAware Transoceanic
01:52AM 59.1462 -24.8950 69° East 496 571 33,000  Level FlightAware Transoceanic
01:53AM 59.1956 -24.6437 69° East 496 571 33,000  Level FlightAware Transoceanic
01:54AM 59.2446 -24.3916 69° East 496 571 33,000  Level FlightAware Transoceanic
01:55AM 59.2930 -24.1389 70° East 496 571 33,000  Level FlightAware Transoceanic
01:56AM 59.3410 -23.8854 70° East 496 571 33,000  Level FlightAware Transoceanic
01:57AM 59.3885 -23.6312 70° East 496 571 33,000  Level FlightAware Transoceanic
01:58AM 59.4354 -23.3763 70° East 496 571 33,000  Level FlightAware Transoceanic
01:59AM 59.4819 -23.1207 70° East 496 571 33,000  Level FlightAware Transoceanic
02:00AM 59.5279 -22.8644 71° East 496 571 33,000  Level FlightAware Transoceanic
02:01AM 59.5734 -22.6073 71° East 496 571 33,000  Level FlightAware Transoceanic
02:02AM 59.6183 -22.3496 71° East 496 571 33,000  Level FlightAware Transoceanic
02:03AM 59.6628 -22.0912 71° East 496 571 33,000  Level FlightAware Transoceanic
02:04AM 59.7068 -21.8322 72° East 496 571 33,000  Level FlightAware Transoceanic
02:05AM 59.7502 -21.5724 72° East 496 571 33,000  Level FlightAware Transoceanic
02:06AM 59.7931 -21.3120 72° East 496 571 33,000  Level FlightAware Transoceanic
02:07AM 59.8355 -21.0509 72° East 496 571 33,000  Level FlightAware Transoceanic
02:08AM 59.8774 -20.7892 72° East 496 571 33,000  Level FlightAware Transoceanic
02:09AM 59.9188 -20.5268 73° East 496 571 33,000  Level FlightAware Transoceanic
02:10AM 59.9597 -20.2637 73° East 496 571 33,000  Level FlightAware Transoceanic
02:11AM 60.0020 -19.9868 73° East  Level FlightAware Approximate
02:12AM 60.0033 -19.9732 76° East  Level FlightAware Approximate
02:13AM 60.0381 -19.6917 76° East  Level FlightAware Approximate
02:14AM 60.0723 -19.4096 76° East  Level FlightAware Approximate
02:15AM 60.1059 -19.1270 76° East  Level FlightAware Approximate
02:16AM 60.1388 -18.8438 77° East  Level FlightAware Approximate
02:17AM 60.1713 -18.5601 77° East  Level FlightAware Approximate
02:18AM 60.2038 -18.2761 77° East  Level FlightAware Approximate
02:19AM 60.2356 -17.9916 77° East  Level FlightAware Approximate
02:20AM 60.2669 -17.7065 77° East  Level FlightAware Approximate
02:21AM 60.2976 -17.4209 78° East  Level FlightAware Approximate
02:22AM 60.3276 -17.1347 78° East  Level FlightAware Approximate
02:23AM 60.3571 -16.8480 78° East  Level FlightAware Approximate
02:24AM 60.3859 -16.5608 78° East  Level FlightAware Approximate
02:25AM 60.4141 -16.2731 79° East  Level FlightAware Approximate
02:26AM 60.4416 -15.9850 79° East  Level FlightAware Approximate
02:27AM 60.4686 -15.6963 79° East  Level FlightAware Approximate
02:28AM 60.4949 -15.4071 79° East  Level FlightAware Approximate
02:29AM 60.5206 -15.1175 80° East  Level FlightAware Approximate
02:30AM 60.5457 -14.8274 80° East  Level FlightAware Approximate
02:31AM 60.5701 -14.5369 80° East  Level FlightAware Approximate
02:32AM 60.5939 -14.2460 80° East  Level FlightAware Approximate
02:33AM 60.6171 -13.9546 81° East  Level FlightAware Approximate
02:34AM 60.6397 -13.6629 81° East  Level FlightAware Approximate
02:35AM 60.6616 -13.3707 81° East  Level FlightAware Approximate
02:36AM 60.6828 -13.0781 81° East  Level FlightAware Approximate
02:37AM 60.7035 -12.7851 82° East  Level FlightAware Approximate
02:38AM 60.7235 -12.4918 82° East  Level FlightAware Approximate
02:39AM 60.7428 -12.1981 82° East  Level FlightAware Approximate
02:40AM 60.7615 -11.9041 82° East  Level FlightAware Approximate
02:41AM 60.7796 -11.6097 83° East  Level FlightAware Approximate
02:42AM 60.7970 -11.3150 83° East  Level FlightAware Approximate
02:43AM 60.8138 -11.0200 83° East  Level FlightAware Approximate
02:44AM 60.8299 -10.7247 83° East  Level FlightAware Approximate
02:45AM 60.8454 -10.4291 84° East  Level FlightAware Approximate
02:46AM 60.8602 -10.1332 84° East  Level FlightAware Approximate
02:47AM 60.8747 -9.8371 84° East  Level FlightAware Approximate
02:48AM 60.8888 -9.5408 84° East  Level FlightAware Approximate
02:49AM 60.9022 -9.2442 85° East  Level FlightAware Approximate
02:50AM 60.9151 -8.9474 85° East  Level FlightAware Approximate
02:51AM 60.9272 -8.6504 85° East  Level FlightAware Approximate
02:52AM 60.9387 -8.3531 85° East  Level FlightAware Approximate
02:53AM 60.9495 -8.0556 86° East  Level FlightAware Approximate
02:53AM 61.0290 -8.5460 86° East 485 558 33,000  Level FlightAware
02:54AM 60.9597 -7.7580 86° East  Level FlightAware Approximate
02:54AM 61.0350 -8.3440 86° East 488 562 33,000  Level FlightAware
02:54AM 61.0380 -8.1980 88° East 488 562 33,000 480 Level FlightAware
02:55AM 61.0420 -8.0280 87° East 467 537 33,600 1,080 Climbing FlightAware
02:56AM 61.0480 -7.7400 87° East 487 560 34,700 840 Climbing FlightAware
02:57AM 61.0510 -7.5770 88° East 481 554 35,000 240 Climbing FlightAware
02:57AM 61.0550 -7.3940 87° East 486 559 35,000  Level FlightAware
02:58AM 61.0570 -7.2780 88° East 486 559 35,000  Level FlightAware
02:58AM 61.0600 -7.0890 88° East 487 560 35,000  Level FlightAware
02:59AM 61.0620 -6.9310 88° East 483 556 35,000  Level FlightAware
03:00AM 61.0650 -6.7500 88° East 481 554 35,000  Level FlightAware
03:00AM 61.0660 -6.5510 89° East 481 554 35,000  Level FlightAware
03:02AM 61.0710 -6.1570 90° East 482 555 35,000  Level FlightAware
03:03AM 61.0656 -5.9072 90° East  Level FlightAware Approximate
03:03AM 61.0720 -5.9670 89° East 480 552 35,000  Level FlightAware
03:03AM 61.0740 -5.7390 89° East 480 552 35,000  Level FlightAware
03:04AM 61.0750 -5.5320 89° East 480 552 35,000  Level FlightAware
03:05AM 61.0760 -5.3290 89° East 481 554 35,000  Level FlightAware
03:05AM 61.0760 -5.2560 90° East 481 554 35,000  Level FlightAware
03:06AM 61.0760 -4.9650 90° East 479 551 35,000  Level FlightAware
03:07AM 61.0760 -4.8200 90° East 478 550 35,000  Level FlightAware
03:07AM 61.0760 -4.6720 90° East 476 548 35,000  Level FlightAware
03:08AM 61.0750 -4.5710 91° East 475 547 35,000  Level FlightAware
03:08AM 61.0750 -4.4180 90° East 474 545 35,000  Level FlightAware
03:09AM 61.0740 -4.2210 91° East 472 543 35,000  Level FlightAware
03:10AM 61.0730 -4.0500 91° East 474 545 35,000  Level FlightAware
03:10AM 61.0710 -3.8950 91° East 474 545 35,000  Level FlightAware
03:11AM 61.0700 -3.7190 91° East 475 547 35,000  Level FlightAware
03:12AM 61.0680 -3.5110 91° East 473 544 35,000  Level FlightAware
03:12AM 61.0660 -3.3800 92° East 473 544 35,000  Level FlightAware
03:13AM 61.0640 -3.2320 92° East 472 543 35,000  Level FlightAware
03:13AM 61.0620 -3.0280 91° East 472 543 35,000  Level FlightAware
03:14AM 61.0580 -2.8230 92° East 468 539 35,000  Level FlightAware
03:15AM 61.0560 -2.6510 91° East 465 535 35,000  Level FlightAware
03:15AM 61.0530 -2.4970 92° East 461 531 35,000  Level FlightAware
03:16AM 61.0480 -2.2370 92° East 460 529 35,000  Level FlightAware
03:17AM 61.0450 -2.1100 93° East 461 531 35,000  Level FlightAware
03:17AM 61.0410 -1.9470 93° East 463 533 35,000  Level FlightAware
03:18AM 61.0370 -1.7780 93° East 462 532 35,000  Level FlightAware
03:18AM 61.0330 -1.6170 93° East 458 527 35,000  Level FlightAware
03:19AM 61.0300 -1.4630 92° East 459 528 35,000  Level FlightAware
03:20AM 61.0250 -1.3100 94° East 459 528 35,000  Level FlightAware
03:20AM 61.0210 -1.1600 93° East 460 529 35,000  Level FlightAware
03:21AM 61.0160 -0.9930 93° East 463 533 35,000  Level FlightAware
03:21AM 61.0120 -0.8580 93° East 462 532 35,000  Level FlightAware
03:22AM 61.0070 -0.6790 93° East 461 531 35,000  Level FlightAware
03:23AM 60.9970 -0.3930 94° East 463 533 35,000  Level FlightAware
03:24AM 60.9920 -0.2420 94° East 465 535 35,000  Level FlightAware
03:24AM 60.9860 -0.0770 94° East 465 535 35,000  Level FlightAware
03:26AM 60.9560 0.2370 101° East 463 533 35,000  Level FlightAware
03:26AM 60.9430 0.3570 103° East 460 529 35,000  Level FlightAware
03:27AM 60.9220 0.5410 103° East 457 526 35,000  Level FlightAware
03:27AM 60.9050 0.6900 103° East 459 528 35,000  Level FlightAware
03:28AM 60.8870 0.8460 103° East 460 529 35,000  Level FlightAware
03:29AM 60.8770 1.0350 96° East 464 534 35,000  Level FlightAware
03:29AM 60.8750 1.1760 92° East 463 533 35,000  Level FlightAware
03:30AM 60.8710 1.3380 93° East 461 531 35,000  Level FlightAware
03:30AM 60.8680 1.4940 92° East 461 531 35,000  Level FlightAware
03:31AM 60.8650 1.6600 92° East 460 529 35,000  Level FlightAware
03:32AM 60.8620 1.8080 92° East 459 528 35,000  Level FlightAware
03:32AM 60.8580 1.9680 93° East 458 527 35,000  Level FlightAware
03:33AM 60.8540 2.1270 93° East 459 528 35,000  Level FlightAware
03:33AM 60.8500 2.2850 93° East 461 531 35,000  Level FlightAware
03:35AM 60.8420 2.5610 93° East 453 521 35,000  Level FlightAware
03:35AM 60.8370 2.7530 93° East 448 516 35,000  Level FlightAware
03:36AM 60.8320 2.9000 94° East 447 514 35,000  Level FlightAware
03:37AM 60.8270 3.0720 93° East 450 518 35,000  Level FlightAware
03:37AM 60.8230 3.2010 94° East 452 520 35,000  Level FlightAware
03:38AM 60.8180 3.3490 94° East 453 521 35,000  Level FlightAware
03:38AM 60.8140 3.4710 94° East 453 521 35,000  Level FlightAware
03:39AM 60.8080 3.6350 94° East 453 521 35,000  Level FlightAware
03:39AM 60.8030 3.7560 95° East 454 522 35,000  Level FlightAware
03:40AM 60.7970 3.9260 94° East 453 521 35,000  Level FlightAware
03:40AM 60.7910 4.0790 95° East 451 519 35,000  Level FlightAware
03:41AM 60.7870 4.1800 95° East 452 520 35,000  Level FlightAware
03:42AM 60.7780 4.3870 95° East 455 524 35,000  Level FlightAware
03:42AM 60.7730 4.5160 94° East 454 522 35,000  Level FlightAware
03:43AM 60.7670 4.6560 95° East 455 524 35,000  Level FlightAware
03:44AM 60.7530 4.9690 95° East 455 524 35,000  Level FlightAware
03:44AM 60.7470 5.0790 96° East 455 524 35,000  Level FlightAware
03:45AM 60.7410 5.2190 95° East 457 526 35,000  Level FlightAware
03:46AM 60.7265 5.5051 96° East 452 520 35,000  Level FlightAware ADS-B (EGBP)
03:47AM 60.7194 5.6423 96° East 460 529 35,000  Level FlightAware ADS-B (EGBP)
03:47AM 60.7125 5.7753 96° East 465 535 35,000 60 Level FlightAware ADS-B (EGBP)
03:48AM 60.7057 5.9037 96° East 448 516 35,100  Climbing FlightAware ADS-B (EGBP)
03:48AM 60.6988 6.0320 96° East 452 520 35,000 -120 Descending FlightAware ADS-B (EGBP)
03:49AM 60.6901 6.1885 96° East 453 521 35,000  Level FlightAware ADS-B (EGBP)
03:49AM 60.6821 6.3298 97° East 458 527 35,000  Level FlightAware ADS-B (EGBP)
03:50AM 60.6746 6.4588 97° East 467 537 35,000 60 Level FlightAware ADS-B (EGBP)
03:50AM 60.6650 6.6265 97° East 453 521 35,100  Climbing FlightAware ADS-B (EGBP)
03:51AM 60.6572 6.7560 97° East 447 514 35,000 -120 Descending FlightAware ADS-B (EGBP)
03:51AM 60.6496 6.8798 97° East 450 518 35,000  Level FlightAware ADS-B (EGBP)
03:52AM 60.6389 7.0534 97° East 465 535 35,000  Level FlightAware ADS-B (EGBP)
03:53AM 60.6308 7.1813 97° East 449 517 35,000  Level FlightAware ADS-B (EGBP)
03:53AM 60.6202 7.3464 97° East 456 525 35,000  Level FlightAware ADS-B (EGBP)
03:54AM 60.6117 7.4765 97° East 462 532 35,000  Level FlightAware ADS-B (EGBP)
03:54AM 60.6010 7.6410 97° East 459 528 35,000  Level FlightAware
03:55AM 60.5910 7.7910 98° East 458 527 35,000  Level FlightAware
03:56AM 60.5800 7.9470 98° East 457 526 35,000  Level FlightAware
03:56AM 60.5690 8.1060 98° East 460 529 35,000  Level FlightAware
03:57AM 60.5590 8.2430 98° East 463 533 35,000  Level FlightAware
03:57AM 60.5490 8.3740 99° East 460 529 35,000  Level FlightAware
03:58AM 60.5370 8.5450 98° East 457 526 35,000  Level FlightAware
03:59AM 60.5230 8.7250 99° East 459 528 35,000  Level FlightAware
04:00AM 60.5000 9.0240 99° East 455 524 35,000  Level FlightAware
04:00AM 60.4910 9.1410 99° East 455 524 35,000  Level FlightAware
04:01AM 60.4770 9.3200 99° East 459 528 35,000  Level FlightAware
04:02AM 60.4620 9.5030 99° East 459 528 35,000  Level FlightAware
04:03AM 60.4420 9.7440 99° East 458 527 35,000  Level FlightAware
04:04AM 60.4190 10.0210 99° East 452 520 35,000  Level FlightAware
04:05AM 60.4030 10.2070 100° East 452 520 35,000  Level FlightAware
04:05AM 60.3920 10.3240 101° East 455 524 35,000  Level FlightAware
04:06AM 60.3790 10.4790 100° East 456 525 35,000  Level FlightAware
04:06AM 60.3670 10.6040 101° East 456 525 35,000  Level FlightAware
04:07AM 60.3540 10.7460 100° East 456 525 35,000  Level FlightAware
04:07AM 60.3430 10.8730 100° East 458 527 35,000  Level FlightAware
04:08AM 60.3290 11.0250 100° East 463 533 35,000  Level FlightAware
04:08AM 60.3140 11.1770 101° East 463 533 35,000  Level FlightAware
04:09AM 60.3000 11.3270 101° East 462 532 35,000  Level FlightAware
04:09AM 60.2880 11.4480 101° East 461 531 35,000  Level FlightAware
04:10AM 60.2680 11.6480 101° East 464 534 35,000  Level FlightAware
04:11AM 60.2580 11.7520 101° East 465 535 35,000  Level FlightAware
04:12AM 60.2350 11.9810 101° East 465 535 35,000  Level FlightAware
04:12AM 60.2130 12.2010 101° East 466 536 35,000  Level FlightAware
04:13AM 60.2000 12.3190 102° East 469 540 35,000  Level FlightAware
04:13AM 60.1880 12.4360 102° East 471 542 35,000  Level FlightAware
04:14AM 60.1730 12.6090 100° East 477 549 35,000  Level FlightAware
04:15AM 60.1570 12.8130 99° East 474 545 35,000  Level FlightAware
04:15AM 60.1380 12.9670 104° East 478 550 35,000  Level FlightAware
04:16AM 60.1220 13.1030 103° East 479 551 35,000  Level FlightAware
04:17AM 60.1010 13.2780 103° East 478 550 35,000  Level FlightAware
04:17AM 60.0820 13.4280 104° East 479 551 35,000  Level FlightAware
04:18AM 60.0620 13.5950 103° East 479 551 35,000  Level FlightAware
04:19AM 60.0380 13.7830 104° East 477 549 35,000  Level FlightAware
04:19AM 60.0200 13.9220 104° East 474 545 35,000  Level FlightAware
04:20AM 60.0040 14.0470 104° East 473 544 35,000  Level FlightAware
04:20AM 59.9850 14.1950 104° East 469 540 35,000  Level FlightAware
04:21AM 59.9450 14.5040 104° East 468 539 35,000  Level FlightAware
04:22AM 59.9260 14.6470 105° East 470 541 35,000  Level FlightAware
04:23AM 59.9030 14.8120 105° East 478 550 35,000  Level FlightAware
04:23AM 59.8760 15.0130 105° East 481 554 35,000  Level FlightAware
04:24AM 59.8520 15.1900 105° East 479 551 35,000  Level FlightAware
04:25AM 59.8270 15.3670 106° East 480 552 35,000  Level FlightAware
04:25AM 59.8050 15.5220 106° East 481 554 35,000  Level FlightAware
04:26AM 59.7860 15.6610 105° East 482 555 35,000  Level FlightAware
04:26AM 59.7670 15.7880 106° East 481 554 35,000  Level FlightAware
04:27AM 59.7430 15.9560 106° East 482 555 35,000  Level FlightAware
04:28AM 59.7210 16.1090 106° East 483 556 35,000  Level FlightAware
04:28AM 59.6980 16.2650 106° East 481 554 35,000  Level FlightAware
04:29AM 59.6750 16.4180 107° East 481 554 35,000  Level FlightAware
04:30AM 59.6520 16.5690 107° East 482 555 35,000  Level FlightAware
04:30AM 59.6240 16.7580 106° East 481 554 35,000  Level FlightAware
04:31AM 59.6000 16.9120 107° East 482 555 35,000  Level FlightAware
04:32AM 59.5730 17.0870 107° East 484 557 35,000  Level FlightAware
04:32AM 59.5520 17.2240 107° East 483 556 35,000  Level FlightAware
04:33AM 59.5260 17.3860 107° East 483 556 35,000  Level FlightAware
04:33AM 59.4990 17.5590 107° East 486 559 35,000  Level FlightAware
04:34AM 59.4690 17.7430 108° East 488 562 35,000  Level FlightAware
04:35AM 59.4400 17.9210 108° East 485 558 35,000  Level FlightAware
04:36AM 59.4140 18.0780 108° East 484 557 35,000  Level FlightAware
04:36AM 59.3840 18.2650 107° East 485 558 35,000  Level FlightAware
04:37AM 59.3510 18.4620 108° East 486 559 35,000  Level FlightAware
04:38AM 59.3260 18.6100 108° East 487 560 35,000  Level FlightAware
04:38AM 59.3070 18.7200 109° East 487 560 35,000  Level FlightAware
04:39AM 59.2760 18.8980 109° East 490 564 35,000  Level FlightAware
04:39AM 59.2530 19.0360 108° East 491 565 35,000  Level FlightAware
04:40AM 59.2270 19.1840 109° East 491 565 35,000  Level FlightAware
04:41AM 59.1960 19.3590 109° East 491 565 35,000  Level FlightAware
04:41AM 59.1700 19.5050 109° East 492 566 35,000  Level FlightAware
04:42AM 59.1430 19.6560 109° East 491 565 35,000  Level FlightAware
04:42AM 59.1160 19.8080 109° East 490 564 35,000  Level FlightAware
04:43AM 59.0870 19.9700 109° East 491 565 35,000  Level FlightAware
04:44AM 59.0580 20.1240 110° East 493 567 35,000  Level FlightAware
04:44AM 59.0320 20.2670 109° East 494 568 35,000  Level FlightAware
04:45AM 59.0020 20.4290 110° East 494 568 35,000  Level FlightAware
04:45AM 58.9820 20.5370 110° East 493 567 35,000  Level FlightAware
04:46AM 58.9490 20.7080 110° East 496 571 35,000  Level FlightAware
04:47AM 58.9270 20.8280 110° East 496 571 35,000  Level FlightAware
04:48AM 58.8810 21.1320 106° East 501 577 35,000  Level FlightAware
04:48AM 58.8660 21.2530 103° East 504 580 35,000  Level FlightAware
04:49AM 58.8460 21.4130 104° East 506 582 35,000  Level FlightAware
04:49AM 58.8260 21.5670 104° East 504 580 35,000  Level FlightAware
04:50AM 58.8010 21.7630 104° East 499 574 35,000  Level FlightAware
04:51AM 58.7810 21.9140 104° East 500 575 35,000  Level FlightAware
04:51AM 58.7570 22.0960 104° East 500 575 35,000  Level FlightAware
04:52AM 58.7360 22.2600 104° East 500 575 35,000  Level FlightAware
04:53AM 58.7190 22.3850 105° East 502 578 35,000  Level FlightAware
04:53AM 58.6900 22.5980 105° East 503 579 35,000  Level FlightAware
04:54AM 58.6630 22.7950 105° East 504 580 35,000  Level FlightAware
04:55AM 58.6360 22.9860 105° East 505 581 35,000  Level FlightAware
04:56AM 58.6100 23.1720 105° East 502 578 35,000  Level FlightAware
04:56AM 58.5870 23.3340 105° East 503 579 35,000  Level FlightAware
04:57AM 58.5620 23.5040 106° East 503 579 35,000  Level FlightAware
04:58AM 58.5350 23.6920 105° East 502 578 35,000  Level FlightAware
04:58AM 58.5140 23.8290 106° East 500 575 35,000  Level FlightAware
04:59AM 58.4910 23.9850 106° East 501 577 35,000  Level FlightAware
04:59AM 58.4720 24.1130 106° East 502 578 35,000  Level FlightAware
05:00AM 58.4470 24.2740 106° East 505 581 35,000  Level FlightAware
05:01AM 58.4220 24.4420 106° East 505 581 35,000  Level FlightAware
05:01AM 58.3970 24.5950 107° East 504 580 35,000  Level FlightAware
05:02AM 58.3660 24.7640 109° East 505 581 35,000  Level FlightAware
05:02AM 58.3390 24.9150 109° East 504 580 35,000  Level FlightAware
05:03AM 58.3110 25.0710 109° East 505 581 35,000  Level FlightAware
05:04AM 58.2850 25.2120 109° East 506 582 35,000  Level FlightAware
05:04AM 58.2630 25.3310 109° East 507 583 35,000  Level FlightAware
05:05AM 58.2280 25.5230 109° East 505 581 35,000  Level FlightAware
05:05AM 58.2020 25.6630 109° East 506 582 35,000  Level FlightAware
05:06AM 58.1700 25.8340 109° East 510 587 35,000  Level FlightAware
05:07AM 58.1360 26.0130 110° East 509 586 35,000  Level FlightAware
05:07AM 58.1080 26.1600 110° East 509 586 35,000  Level FlightAware
05:08AM 58.0730 26.3400 110° East 509 586 35,000  Level FlightAware
05:09AM 58.0430 26.4950 110° East 509 586 35,000  Level FlightAware
05:10AM 57.9940 26.7460 110° East 508 585 35,000  Level FlightAware
05:10AM 57.9690 26.8730 110° East 507 583 35,000  Level FlightAware
05:11AM 57.9340 27.0470 111° Southeast 507 583 35,000  Level FlightAware
05:12AM 57.9010 27.2080 111° Southeast 507 583 35,000  Level FlightAware
05:12AM 57.8710 27.3560 111° Southeast 507 583 35,000  Level FlightAware
05:13AM 57.8370 27.5100 112° Southeast 508 585 35,000  Level FlightAware
05:13AM 57.7970 27.6430 119° Southeast 508 585 35,000  Level FlightAware
05:14AM 57.7360 27.8370 120° Southeast 508 585 35,000  Level FlightAware
05:15AM 57.6880 27.9830 122° Southeast 508 585 35,000  Level FlightAware
05:15AM 57.6470 28.1050 122° Southeast 508 585 35,000  Level FlightAware
05:16AM 57.5900 28.2740 122° Southeast 508 585 35,000  Level FlightAware
05:17AM 57.5450 28.4050 123° Southeast 510 587 35,000  Level FlightAware
05:17AM 57.4950 28.5510 122° Southeast 510 587 35,000  Level FlightAware
05:18AM 57.4400 28.7110 123° Southeast 510 587 35,000  Level FlightAware
05:19AM 57.3860 28.8670 123° Southeast 507 583 35,000  Level FlightAware
05:20AM 57.3350 29.0130 123° Southeast 504 580 35,000  Level FlightAware
05:20AM 57.2870 29.1510 123° Southeast 503 579 35,000  Level FlightAware
05:21AM 57.2350 29.2990 123° Southeast 505 581 35,000  Level FlightAware
05:21AM 57.2010 29.3930 124° Southeast 508 585 35,000  Level FlightAware
05:22AM 57.1570 29.5190 123° Southeast 512 589 35,000  Level FlightAware
05:23AM 57.1070 29.6580 123° Southeast 513 590 35,000  Level FlightAware
05:23AM 57.0370 29.8520 123° Southeast 512 589 35,000  Level FlightAware
05:24AM 56.9830 30.0030 123° Southeast 504 580 35,000  Level FlightAware
05:25AM 56.9310 30.1430 124° Southeast 504 580 35,000  Level FlightAware
05:25AM 56.8870 30.2640 124° Southeast 505 581 35,000  Level FlightAware
05:26AM 56.8450 30.3790 124° Southeast 505 581 35,000  Level FlightAware
05:27AM 56.7980 30.5050 124° Southeast 505 581 35,000  Level FlightAware
05:27AM 56.7520 30.6270 124° Southeast 505 581 35,000  Level FlightAware
05:28AM 56.6760 30.8040 128° Southeast 506 582 35,000  Level FlightAware
05:29AM 56.6010 30.9710 129° Southeast 507 583 35,000  Level FlightAware
05:29AM 56.5990 30.9760 126° Southeast 502 578 35,000  Level FlightAware
05:30AM 56.4950 31.2350 126° Southeast 504 580 35,000  Level FlightAware
05:31AM 56.4420 31.3950 121° Southeast 504 580 35,000  Level FlightAware
05:31AM 56.4170 31.4680 122° Southeast 504 580 35,000  Level FlightAware
05:32AM 56.3800 31.5790 121° Southeast 504 580 35,000  Level FlightAware
05:33AM 56.3430 31.6920 121° Southeast 504 580 35,000  Level FlightAware
05:33AM 56.2610 31.8910 127° Southeast 502 578 35,000  Level FlightAware
05:34AM 56.2040 32.0470 123° Southeast 501 577 35,000  Level FlightAware
05:35AM 56.1540 32.1820 124° Southeast 497 572 35,000  Level FlightAware
05:35AM 56.1090 32.2970 125° Southeast 495 570 35,000 180 Level FlightAware
05:36AM 56.0490 32.4490 125° Southeast 497 572 35,300 600 Climbing FlightAware
05:37AM 56.0030 32.5660 125° Southeast 501 577 35,800 960 Climbing FlightAware
05:37AM 55.9490 32.7020 125° Southeast 500 575 36,500 840 Climbing FlightAware
05:38AM 55.8880 32.8540 126° Southeast 505 581 37,000 300 Climbing FlightAware
05:39AM 55.8220 33.0020 128° Southeast 499 574 37,000  Level FlightAware
05:39AM 55.7630 33.1260 130° Southeast 500 575 37,000  Level FlightAware
05:40AM 55.7040 33.2510 130° Southeast 502 578 37,000  Level FlightAware
05:41AM 55.6520 33.3610 130° Southeast 503 579 37,000  Level FlightAware
05:41AM 55.6060 33.4530 131° Southeast 504 580 37,000  Level FlightAware
05:42AM 55.5380 33.5940 130° Southeast 504 580 37,000  Level FlightAware
05:43AM 55.4770 33.7180 131° Southeast 504 580 37,000  Level FlightAware
05:43AM 55.4090 33.8580 131° Southeast 505 581 37,000  Level FlightAware
05:44AM 55.3270 34.0300 130° Southeast 508 585 37,000  Level FlightAware
05:45AM 55.2740 34.1390 130° Southeast 508 585 37,000  Level FlightAware
05:46AM 55.1910 34.3120 130° Southeast 504 580 37,000  Level FlightAware
05:46AM 55.1300 34.4350 131° Southeast 503 579 37,000  Level FlightAware
05:47AM 55.0760 34.5430 131° Southeast 503 579 37,000  Level FlightAware
05:48AM 55.0150 34.6650 131° Southeast 504 580 37,000  Level FlightAware
05:48AM 54.9620 34.7710 131° Southeast 503 579 37,000  Level FlightAware
05:49AM 54.9240 34.8480 131° Southeast 501 577 37,000  Level FlightAware
05:49AM 54.8730 34.9570 129° Southeast 501 577 37,000  Level FlightAware
05:50AM 54.8290 35.0740 123° Southeast 503 579 37,000  Level FlightAware
05:51AM 54.7900 35.2200 115° Southeast 506 582 37,000  Level FlightAware
05:51AM 54.7640 35.3540 109° East 508 585 37,000  Level FlightAware
05:52AM 54.7420 35.5740 100° East 508 585 37,000  Level FlightAware
05:53AM 54.7390 35.6960 92° East 509 586 37,000  Level FlightAware
05:53AM 54.7380 35.8680 91° East 513 590 37,000  Level FlightAware
05:54AM 54.7370 36.1110 90° East 516 594 37,000  Level FlightAware
05:55AM 54.7360 36.3890 90° East 508 585 37,000  Level FlightAware
05:56AM 54.7330 36.5440 92° East 508 585 37,000  Level FlightAware
05:57AM 54.7180 36.7110 99° East 499 574 37,000  Level FlightAware
05:57AM 54.6930 36.8640 106° East 495 570 37,000  Level FlightAware
05:59AM 54.6450 37.1290 107° East 498 573 37,000  Level FlightAware
05:59AM 54.6200 37.2600 108° East 496 571 37,000  Level FlightAware
06:00AM 54.5850 37.4030 113° Southeast 491 565 37,000  Level FlightAware
06:00AM 54.5490 37.5270 117° Southeast 494 568 37,000  Level FlightAware
06:01AM 54.5000 37.6990 116° Southeast 489 563 37,000  Level FlightAware
06:02AM 54.4540 37.8580 116° Southeast 487 560 37,000  Level FlightAware
06:03AM 54.4150 37.9960 116° Southeast 492 566 37,000  Level FlightAware
06:03AM 54.3800 38.1200 116° Southeast 493 567 37,000  Level FlightAware
06:04AM 54.3470 38.2460 114° Southeast 499 574 37,000  Level FlightAware
06:04AM 54.3230 38.3780 107° East 505 581 37,000  Level FlightAware
06:05AM 54.2960 38.5510 105° East 504 580 37,000  Level FlightAware
06:06AM 54.2720 38.7040 105° East 501 577 37,000  Level FlightAware
06:06AM 54.2540 38.8180 105° East 500 575 37,000  Level FlightAware
06:07AM 54.2270 38.9880 105° East 500 575 37,000  Level FlightAware
06:08AM 54.2030 39.1610 103° East 502 578 37,000  Level FlightAware
06:09AM 54.1700 39.3910 104° East 501 577 37,000  Level FlightAware
06:09AM 54.1500 39.5260 104° East 504 580 37,000  Level FlightAware
06:10AM 54.1330 39.6410 104° East 504 580 37,000  Level FlightAware
06:11AM 54.1110 39.7940 104° East 504 580 37,000  Level FlightAware
06:11AM 54.0790 40.0040 104° East 504 580 37,000  Level FlightAware
06:12AM 54.0610 40.1180 105° East 505 581 37,000  Level FlightAware
06:12AM 54.0440 40.2330 104° East 505 581 37,000  Level FlightAware
06:13AM 54.0230 40.3680 105° East 505 581 37,000  Level FlightAware
06:14AM 54.0010 40.5080 105° East 506 582 37,000  Level FlightAware
06:14AM 53.9720 40.6920 105° East 507 583 37,000  Level FlightAware
06:15AM 53.9500 40.8340 105° East 509 586 37,000  Level FlightAware
06:16AM 53.9280 40.9740 105° East 506 582 37,000  Level FlightAware
06:16AM 53.9030 41.1330 105° East 507 583 37,000  Level FlightAware
06:17AM 53.8770 41.2980 105° East 507 583 37,000  Level FlightAware
06:18AM 53.8480 41.4810 105° East 506 582 37,000  Level FlightAware
06:19AM 53.8200 41.6510 106° East 507 583 37,000  Level FlightAware
06:19AM 53.7920 41.8230 105° East 510 587 37,000  Level FlightAware
06:20AM 53.7640 41.9890 106° East 512 589 37,000  Level FlightAware
06:21AM 53.7420 42.1230 105° East 515 593 37,000  Level FlightAware
06:21AM 53.7230 42.2350 106° East 517 595 37,000  Level FlightAware
06:22AM 53.6960 42.3940 106° East 518 596 37,000  Level FlightAware
06:22AM 53.6780 42.5000 106° East 515 593 37,000  Level FlightAware
06:23AM 53.6550 42.6620 103° East 517 595 37,000  Level FlightAware
06:24AM 53.6450 42.8430 95° East 523 602 37,000  Level FlightAware
06:24AM 53.6400 42.9920 93° East 525 604 37,000  Level FlightAware
06:25AM 53.6350 43.1380 93° East 526 605 37,000  Level FlightAware
06:26AM 53.6300 43.3040 93° East 527 606 37,000  Level FlightAware
06:26AM 53.6240 43.4830 93° East 527 606 37,000  Level FlightAware
06:27AM 53.6180 43.6420 94° East 528 608 37,000  Level FlightAware
06:28AM 53.6130 43.7900 93° East 527 606 37,000  Level FlightAware
06:28AM 53.6070 43.9420 94° East 525 604 37,000  Level FlightAware
06:29AM 53.5990 44.1330 94° East 524 603 37,000  Level FlightAware
06:30AM 53.5940 44.2920 93° East 525 604 37,000  Level FlightAware
06:30AM 53.5900 44.4590 92° East 524 603 37,000  Level FlightAware
06:31AM 53.5870 44.5560 93° East 523 602 37,000  Level FlightAware
06:31AM 53.5820 44.7220 93° East 523 602 37,000  Level FlightAware
06:32AM 53.5770 44.8800 93° East 522 601 37,000  Level FlightAware
06:33AM 53.5710 45.0410 94° East 521 600 37,000  Level FlightAware
06:33AM 53.5570 45.1890 99° East 521 600 37,000  Level FlightAware
06:34AM 53.5320 45.3290 107° East 518 596 37,000  Level FlightAware
06:35AM 53.4800 45.5470 112° Southeast 516 594 37,000  Level FlightAware
06:35AM 53.4470 45.6830 112° Southeast 514 592 37,000  Level FlightAware
06:36AM 53.3960 45.8860 113° Southeast 514 592 37,000  Level FlightAware
06:37AM 53.3650 46.0070 113° Southeast 515 593 37,000  Level FlightAware
06:38AM 53.3020 46.2550 113° Southeast 515 593 37,000  Level FlightAware
06:39AM 53.2740 46.3660 113° Southeast 516 594 37,000  Level FlightAware
06:39AM 53.2410 46.4920 114° Southeast 517 595 37,000  Level FlightAware
06:40AM 53.1980 46.6560 114° Southeast 516 594 37,000  Level FlightAware
06:41AM 53.1550 46.8200 114° Southeast 517 595 37,000  Level FlightAware
06:41AM 53.1120 46.9860 113° Southeast 516 594 37,000  Level FlightAware
06:42AM 53.0780 47.1110 114° Southeast 514 592 37,000  Level FlightAware
06:43AM 53.0160 47.3430 114° Southeast 511 588 37,000  Level FlightAware
06:44AM 52.9770 47.4860 114° Southeast 512 589 37,000  Level FlightAware
06:45AM 52.9340 47.6470 114° Southeast 511 588 37,000  Level FlightAware
06:45AM 52.8950 47.7880 115° Southeast 509 586 37,000  Level FlightAware
06:46AM 52.8610 47.9130 114° Southeast 509 586 37,000  Level FlightAware
06:47AM 52.7970 48.1430 115° Southeast 511 588 37,000  Level FlightAware
06:47AM 52.7620 48.2670 115° Southeast 511 588 37,000  Level FlightAware
06:48AM 52.7280 48.3900 114° Southeast 510 587 37,000  Level FlightAware
06:49AM 52.6890 48.5290 115° Southeast 508 585 37,000  Level FlightAware
06:49AM 52.6490 48.6700 115° Southeast 509 586 37,000  Level FlightAware
06:50AM 52.6050 48.8270 115° Southeast 510 587 37,000  Level FlightAware
06:51AM 52.5690 48.9510 115° Southeast 510 587 37,000  Level FlightAware
06:52AM 52.5040 49.1790 115° Southeast 511 588 37,000  Level FlightAware
06:52AM 52.4640 49.3170 115° Southeast 512 589 37,000  Level FlightAware
06:53AM 52.4280 49.4410 115° Southeast 511 588 37,000  Level FlightAware
06:54AM 52.3870 49.5800 116° Southeast 510 587 37,000  Level FlightAware
06:54AM 52.3520 49.6990 116° Southeast 510 587 37,000  Level FlightAware
06:55AM 52.3160 49.8220 116° Southeast 510 587 37,000  Level FlightAware
06:55AM 52.2840 49.9310 116° Southeast 511 588 37,000  Level FlightAware
06:56AM 52.2440 50.0630 116° Southeast 508 585 37,000  Level FlightAware
06:57AM 52.2200 50.1430 116° Southeast 506 582 37,000  Level FlightAware
06:57AM 52.1640 50.3170 118° Southeast 506 582 37,000  Level FlightAware
06:58AM 52.1080 50.4390 127° Southeast 507 583 37,000  Level FlightAware
06:59AM 52.0530 50.5350 133° Southeast 507 583 37,000  Level FlightAware
06:59AM 51.9910 50.6230 139° Southeast 507 583 37,000  Level FlightAware
07:00AM 51.9070 50.7210 144° Southeast 508 585 37,000  Level FlightAware
07:00AM 51.8420 50.7990 143° Southeast 507 583 37,000  Level FlightAware
07:01AM 51.7840 50.8640 145° Southeast 507 583 37,000  Level FlightAware
07:01AM 51.7270 50.9270 146° Southeast 506 582 37,000  Level FlightAware
07:02AM 51.6560 51.0060 145° Southeast 507 583 37,000  Level FlightAware
07:03AM 51.5810 51.0850 147° Southeast 508 585 37,000  Level FlightAware
07:03AM 51.5320 51.1360 147° Southeast 508 585 37,000  Level FlightAware
07:04AM 51.4320 51.2420 147° Southeast 505 581 37,000  Level FlightAware
07:05AM 51.3560 51.3220 147° Southeast 501 577 37,000  Level FlightAware
07:05AM 51.2960 51.3840 147° Southeast 503 579 37,000  Level FlightAware
07:06AM 51.2310 51.4520 147° Southeast 503 579 37,000  Level FlightAware
07:06AM 51.1790 51.5100 145° Southeast 499 574 37,000  Level FlightAware
07:07AM 51.1090 51.6110 138° Southeast 497 572 37,000  Level FlightAware
07:07AM 51.0650 51.6920 131° Southeast 496 571 37,000  Level FlightAware
07:08AM 51.0080 51.8070 128° Southeast 495 570 37,000  Level FlightAware
07:08AM 50.9700 51.8830 128° Southeast 495 570 37,000  Level FlightAware
07:09AM 50.9080 52.0020 130° Southeast 492 566 37,000  Level FlightAware
07:10AM 50.8460 52.1200 130° Southeast 491 565 37,000  Level FlightAware
07:11AM 50.7850 52.2370 129° Southeast 492 566 37,000  Level FlightAware
07:11AM 50.7440 52.3140 130° Southeast 492 566 37,000  Level FlightAware
07:12AM 50.6740 52.4470 130° Southeast 492 566 37,000  Level FlightAware
07:12AM 50.6310 52.5310 129° Southeast 492 566 37,000  Level FlightAware
07:13AM 50.5580 52.6660 130° Southeast 490 564 37,000  Level FlightAware
07:14AM 50.5230 52.7310 130° Southeast 488 562 37,000  Level FlightAware
07:15AM 50.4360 52.8930 130° Southeast 488 562 37,000  Level FlightAware
07:15AM 50.3680 53.0190 130° Southeast 488 562 37,000  Level FlightAware
07:16AM 50.3240 53.1000 130° Southeast 486 559 37,000  Level FlightAware
07:17AM 50.2840 53.1740 130° Southeast 488 562 37,000  Level FlightAware
07:17AM 50.2070 53.3140 131° Southeast 491 565 37,000  Level FlightAware
07:18AM 50.1380 53.4400 130° Southeast 490 564 37,000  Level FlightAware
07:19AM 50.0940 53.5230 130° Southeast 490 564 37,000  Level FlightAware
07:19AM 50.0110 53.6700 131° Southeast 490 564 37,000  Level FlightAware
07:20AM 49.9760 53.7320 131° Southeast 487 560 37,000  Level FlightAware
07:21AM 49.9130 53.8490 130° Southeast 487 560 37,000  Level FlightAware
07:22AM 49.8540 53.9580 130° Southeast 487 560 37,000  Level FlightAware
07:22AM 49.7950 54.0670 130° Southeast 487 560 37,000  Level FlightAware
07:23AM 49.7510 54.1490 130° Southeast 487 560 37,000  Level FlightAware
07:24AM 49.6910 54.2580 130° Southeast 487 560 37,000  Level FlightAware
07:25AM 49.6320 54.3660 130° Southeast 487 560 37,000  Level FlightAware
07:25AM 49.5880 54.4480 130° Southeast 487 560 37,000  Level FlightAware
07:26AM 49.5580 54.5020 131° Southeast 487 560 37,000  Level FlightAware
07:26AM 49.5140 54.5840 130° Southeast 487 560 37,000  Level FlightAware
07:27AM 49.4700 54.6650 130° Southeast 487 560 37,000  Level FlightAware
07:28AM 49.4110 54.7730 130° Southeast 487 560 37,000  Level FlightAware
07:28AM 49.3660 54.8540 130° Southeast 487 560 37,000  Level FlightAware
07:29AM 49.3220 54.9350 130° Southeast 487 560 37,000  Level FlightAware
07:30AM 49.2470 55.0720 130° Southeast 487 560 37,000  Level FlightAware
07:33AM 49.0377 55.5684 123° Southeast  Level Estimated
07:34AM 48.9586 55.7534 123° Southeast  Level Estimated
07:35AM 48.8793 55.9379 123° Southeast  Level Estimated
07:36AM 48.7997 56.1218 123° Southeast  Level Estimated
07:37AM 48.7198 56.3051 123° Southeast  Level Estimated
07:38AM 48.6395 56.4878 124° Southeast  Level Estimated
07:39AM 48.5591 56.6699 124° Southeast  Level Estimated
07:40AM 48.4783 56.8515 124° Southeast  Level Estimated
07:41AM 48.3972 57.0325 124° Southeast  Level Estimated
07:42AM 48.3158 57.2129 124° Southeast  Level Estimated
07:43AM 48.2342 57.3927 124° Southeast  Level Estimated
07:44AM 48.1523 57.5720 124° Southeast  Level Estimated
07:45AM 48.0701 57.7507 124° Southeast  Level Estimated
07:46AM 47.9877 57.9288 125° Southeast  Level Estimated
07:47AM 47.9049 58.1063 125° Southeast  Level Estimated
07:48AM 47.8219 58.2833 125° Southeast  Level Estimated
07:49AM 47.7386 58.4597 125° Southeast  Level Estimated
07:50AM 47.6551 58.6356 125° Southeast  Level Estimated
07:51AM 47.5713 58.8108 125° Southeast  Level Estimated
07:52AM 47.4872 58.9856 125° Southeast  Level Estimated
07:53AM 47.4028 59.1597 126° Southeast  Level Estimated
07:54AM 47.3182 59.3333 126° Southeast  Level Estimated
07:55AM 47.2333 59.5064 126° Southeast  Level Estimated
07:56AM 47.1482 59.6789 126° Southeast  Level Estimated
07:57AM 47.0628 59.8508 126° Southeast  Level Estimated
07:58AM 46.9771 60.0222 126° Southeast  Level Estimated
07:59AM 46.8912 60.1930 126° Southeast  Level Estimated
08:00AM 46.8051 60.3633 126° Southeast  Level Estimated
08:01AM 46.7187 60.5331 127° Southeast  Level Estimated
08:02AM 46.6320 60.7023 127° Southeast  Level Estimated
08:03AM 46.5451 60.8709 127° Southeast  Level Estimated
08:04AM 46.4579 61.0391 127° Southeast  Level Estimated
08:05AM 46.3705 61.2066 127° Southeast  Level Estimated
08:06AM 46.2829 61.3737 127° Southeast  Level Estimated
08:07AM 46.1950 61.5402 127° Southeast  Level Estimated
08:08AM 46.1068 61.7062 127° Southeast  Level Estimated
08:09AM 46.0185 61.8717 128° Southeast  Level Estimated
08:10AM 45.9299 62.0366 128° Southeast  Level Estimated
08:11AM 45.8410 62.2010 128° Southeast  Level Estimated
08:12AM 45.7519 62.3648 128° Southeast  Level Estimated
08:13AM 45.6626 62.5282 128° Southeast  Level Estimated
08:14AM 45.5731 62.6910 128° Southeast  Level Estimated
08:15AM 45.4833 62.8533 128° Southeast  Level Estimated
08:16AM 45.3933 63.0151 128° Southeast  Level Estimated
08:17AM 45.3031 63.1764 128° Southeast  Level Estimated
08:18AM 45.2126 63.3372 129° Southeast  Level Estimated
08:19AM 45.1219 63.4974 129° Southeast  Level Estimated
08:20AM 45.0310 63.6572 129° Southeast  Level Estimated
08:21AM 44.9399 63.8164 129° Southeast  Level Estimated
08:22AM 44.8486 63.9751 129° Southeast  Level Estimated
08:23AM 44.7570 64.1333 129° Southeast  Level Estimated
08:24AM 44.6652 64.2911 129° Southeast  Level Estimated
08:25AM 44.5732 64.4483 129° Southeast  Level Estimated
08:26AM 44.4810 64.6050 129° Southeast  Level Estimated
08:27AM 44.3885 64.7613 130° Southeast  Level Estimated
08:28AM 44.2959 64.9170 130° Southeast  Level Estimated
08:29AM 44.2031 65.0723 130° Southeast  Level Estimated
08:30AM 44.1100 65.2270 130° Southeast  Level Estimated
08:31AM 44.0167 65.3813 130° Southeast  Level Estimated
08:32AM 43.9232 65.5351 130° Southeast  Level Estimated
08:33AM 43.8296 65.6884 130° Southeast  Level Estimated
08:34AM 43.7357 65.8412 130° Southeast  Level Estimated
08:35AM 43.6416 65.9936 130° Southeast  Level Estimated
08:36AM 43.5473 66.1454 131° Southeast  Level Estimated
08:37AM 43.4528 66.2968 131° Southeast  Level Estimated
08:38AM 43.3581 66.4477 131° Southeast  Level Estimated
08:39AM 43.2632 66.5982 131° Southeast  Level Estimated
08:40AM 43.1681 66.7482 131° Southeast  Level Estimated
08:41AM 43.0729 66.8977 131° Southeast  Level Estimated
08:42AM 42.9774 67.0467 131° Southeast  Level Estimated
08:43AM 42.8817 67.1953 131° Southeast  Level Estimated
08:44AM 42.7859 67.3434 131° Southeast  Level Estimated
08:45AM 42.6898 67.4911 131° Southeast  Level Estimated
08:46AM 42.5936 67.6383 132° Southeast  Level Estimated
08:46AM 41.2950 64.8660 132° Southeast 486 559 39,000  Level FlightAware
08:47AM 42.4971 67.7851 132° Southeast  Level Estimated
08:47AM 41.2470 64.8920 158° South 486 559 39,000  Level FlightAware
08:47AM 41.1620 64.9370 158° South 486 559 39,000  Level FlightAware
08:49AM 40.9810 65.0320 158° South 482 555 39,000  Level FlightAware
08:49AM 40.9070 65.0710 158° South 486 559 39,000  Level FlightAware
08:50AM 40.8390 65.1070 158° South 486 559 39,000  Level FlightAware
08:50AM 40.7680 65.1450 158° South 488 562 39,000  Level FlightAware
08:51AM 40.7020 65.1800 158° South 486 559 39,000  Level FlightAware
08:52AM 40.6170 65.2250 158° South 485 558 39,000  Level FlightAware
08:52AM 40.5410 65.2650 158° South 483 556 39,000  Level FlightAware
08:53AM 40.4820 65.2960 158° South 482 555 39,000  Level FlightAware
08:53AM 40.4030 65.3370 158° South 480 552 39,000  Level FlightAware
08:54AM 40.3370 65.3710 159° South 482 555 39,000  Level FlightAware
08:54AM 40.2500 65.4160 158° South 482 555 39,000  Level FlightAware
08:55AM 40.1660 65.4590 159° South 482 555 39,000  Level FlightAware
08:56AM 40.0840 65.5010 159° South 483 556 39,000  Level FlightAware
08:56AM 40.0090 65.5400 158° South 486 559 39,000  Level FlightAware
08:57AM 39.9340 65.5790 158° South 487 560 39,000  Level FlightAware
08:58AM 39.8700 65.6120 158° South 488 562 39,000  Level FlightAware
08:58AM 39.7990 65.6480 159° South 488 562 39,000  Level FlightAware
08:59AM 39.6940 65.7020 158° South 487 560 39,000  Level FlightAware
08:59AM 39.6300 65.7340 159° South 487 560 39,000  Level FlightAware
09:00AM 39.5500 65.7740 159° South 487 560 39,000  Level FlightAware
09:01AM 39.4670 65.8160 159° South 486 559 39,000  Level FlightAware
09:02AM 39.3610 65.8690 159° South 489 563 39,000  Level FlightAware
09:02AM 39.2690 65.9150 159° South 491 565 39,000  Level FlightAware
09:03AM 39.1760 65.9620 159° South 488 562 39,000  Level FlightAware
09:04AM 39.1220 65.9890 159° South 488 562 39,000  Level FlightAware
09:04AM 39.0510 66.0260 158° South 488 562 39,000  Level FlightAware
09:05AM 38.9660 66.0700 158° South 488 562 39,000  Level FlightAware
09:06AM 38.9000 66.1040 158° South 488 562 39,000  Level FlightAware
09:06AM 38.8360 66.1380 158° South 488 562 39,000  Level FlightAware
09:07AM 38.7500 66.1820 158° South 488 562 39,000  Level FlightAware
09:08AM 38.6680 66.2240 158° South 488 562 39,000  Level FlightAware
09:09AM 38.5830 66.2680 158° South 488 562 39,000  Level FlightAware
09:09AM 38.5190 66.3020 157° South 488 562 39,000  Level FlightAware
09:10AM 38.4530 66.3360 158° South 488 562 39,000  Level FlightAware
09:11AM 38.3680 66.3800 158° South 488 562 39,000  Level FlightAware
09:11AM 38.2910 66.4190 158° South 488 562 39,000  Level FlightAware
09:12AM 38.2060 66.4630 158° South 488 562 39,000  Level FlightAware
09:13AM 38.1200 66.5070 158° South 488 562 39,000  Level FlightAware
09:14AM 38.0560 66.5400 158° South 488 562 39,000  Level FlightAware
09:17AM 37.7966 66.9628 128° Southeast  Level Estimated
09:18AM 37.7073 67.1071 128° Southeast  Level Estimated
09:19AM 37.6178 67.2511 128° Southeast  Level Estimated
09:20AM 37.5281 67.3947 128° Southeast  Level Estimated
09:21AM 37.4383 67.5379 128° Southeast  Level Estimated
09:22AM 37.3483 67.6808 128° Southeast  Level Estimated
09:23AM 37.2582 67.8234 128° Southeast  Level Estimated
09:24AM 37.1678 67.9656 129° Southeast  Level Estimated
09:25AM 37.0773 68.1075 129° Southeast  Level Estimated
09:26AM 36.9866 68.2490 129° Southeast  Level Estimated
09:27AM 36.8958 68.3902 129° Southeast  Level Estimated
09:28AM 36.8048 68.5311 129° Southeast  Level Estimated
09:29AM 36.7136 68.6716 129° Southeast  Level Estimated
09:30AM 36.6223 68.8118 129° Southeast  Level Estimated
09:31AM 36.5308 68.9517 129° Southeast  Level Estimated
09:32AM 36.4391 69.0912 129° Southeast  Level Estimated
09:33AM 36.3473 69.2304 129° Southeast  Level Estimated
09:34AM 36.2553 69.3693 129° Southeast  Level Estimated
09:35AM 36.1631 69.5079 129° Southeast  Level Estimated
09:36AM 36.0708 69.6461 130° Southeast  Level Estimated
09:37AM 35.9784 69.7840 130° Southeast  Level Estimated
09:38AM 35.8857 69.9216 130° Southeast  Level Estimated
09:39AM 35.7930 70.0588 130° Southeast  Level Estimated
09:40AM 35.7000 70.1958 130° Southeast  Level Estimated
09:41AM 35.6069 70.3324 130° Southeast  Level Estimated
09:42AM 35.5137 70.4687 130° Southeast  Level Estimated
09:43AM 35.4203 70.6047 130° Southeast  Level Estimated
09:44AM 35.3267 70.7403 130° Southeast  Level Estimated
09:45AM 35.2330 70.8757 130° Southeast  Level Estimated
09:46AM 35.1392 71.0107 130° Southeast  Level Estimated
09:47AM 35.0452 71.1454 130° Southeast  Level Estimated
09:48AM 34.9510 71.2799 130° Southeast  Level Estimated
09:49AM 34.8567 71.4140 131° Southeast  Level Estimated
09:49AM 33.4950 69.7890 131° Southeast 515 593 39,000  Level FlightAware
09:50AM 34.7623 71.5478 131° Southeast  Level Estimated
09:50AM 33.4560 69.8140 152° Southeast 514 592 39,000  Level FlightAware
09:51AM 33.3140 69.9060 152° Southeast 514 592 39,000  Level FlightAware
09:52AM 33.2280 69.9590 153° Southeast 509 586 39,000  Level FlightAware
09:52AM 33.1840 69.9870 152° Southeast 509 586 39,000  Level FlightAware
09:53AM 33.0900 70.0460 152° Southeast 507 583 39,000  Level FlightAware
09:53AM 33.0240 70.0900 151° Southeast 507 583 39,000  Level FlightAware
09:54AM 32.9440 70.1500 148° Southeast 510 587 39,000  Level FlightAware
09:55AM 32.8630 70.2090 149° Southeast 510 587 39,000  Level FlightAware
09:56AM 32.7280 70.3060 149° Southeast 512 589 39,000  Level FlightAware
09:56AM 32.6510 70.3610 149° Southeast 511 588 39,000  Level FlightAware
09:57AM 32.5720 70.4170 149° Southeast 515 593 39,000  Level FlightAware
09:58AM 32.4940 70.4730 149° Southeast 517 595 39,000  Level FlightAware
09:58AM 32.4310 70.5180 149° Southeast 516 594 39,000  Level FlightAware
09:59AM 32.3610 70.5690 148° Southeast 518 596 39,000  Level FlightAware
09:59AM 32.2710 70.6330 149° Southeast 516 594 39,000  Level FlightAware
10:00AM 32.2080 70.6770 149° Southeast 519 597 39,000  Level FlightAware
10:01AM 32.1130 70.7440 149° Southeast 518 596 39,000  Level FlightAware
10:02AM 31.9890 70.8480 145° Southeast 528 608 39,000  Level FlightAware
10:02AM 31.9200 70.9290 135° Southeast 537 618 39,000  Level FlightAware
10:03AM 31.8580 71.0210 128° Southeast 547 629 39,000  Level FlightAware
10:04AM 31.8130 71.1070 122° Southeast 552 635 39,000  Level FlightAware
10:04AM 31.7680 71.2080 118° Southeast 552 635 39,000  Level FlightAware
10:05AM 31.7310 71.2880 119° Southeast 554 638 39,000  Level FlightAware
10:05AM 31.6810 71.3990 118° Southeast 556 640 39,000  Level FlightAware
10:06AM 31.6370 71.4960 118° Southeast 555 639 39,000  Level FlightAware
10:07AM 31.5940 71.5900 118° Southeast 555 639 39,000  Level FlightAware
10:07AM 31.5450 71.6970 118° Southeast 555 639 39,000  Level FlightAware
10:08AM 31.4880 71.8210 118° Southeast 557 641 39,000  Level FlightAware
10:09AM 31.4090 71.9920 118° Southeast 556 640 39,000  Level FlightAware
10:10AM 31.3670 72.0840 118° Southeast 555 639 39,000  Level FlightAware
10:10AM 31.3270 72.1950 113° Southeast 557 641 39,000  Level FlightAware
10:11AM 31.3120 72.2510 107° East 558 642 39,000  Level FlightAware
10:12AM 31.2840 72.4100 102° East 562 647 39,000  Level FlightAware
10:12AM 31.2780 72.5150 94° East 561 646 39,000  Level FlightAware
10:13AM 31.2820 72.6520 88° East 554 638 39,000  Level FlightAware
10:14AM 31.2860 72.7640 88° East 557 641 39,000  Level FlightAware
10:14AM 31.2910 72.8990 87° East 554 638 39,000  Level FlightAware
10:15AM 31.2960 73.0260 87° East 550 633 39,000  Level FlightAware
10:16AM 31.3010 73.1520 87° East 551 634 39,000  Level FlightAware
10:16AM 31.3060 73.2730 87° East 554 638 39,000  Level FlightAware
10:17AM 31.3100 73.4030 88° East 555 639 39,000  Level FlightAware
10:18AM 31.3140 73.5100 87° East 553 636 39,000  Level FlightAware
10:18AM 31.3180 73.6370 88° East 553 636 39,000  Level FlightAware
10:19AM 31.3210 73.7210 88° East 554 638 39,000  Level FlightAware
10:20AM 31.3250 73.8400 88° East 554 638 39,000  Level FlightAware
10:20AM 31.3290 73.9610 88° East 556 640 39,000  Level FlightAware
10:21AM 31.3330 74.1040 88° East 555 639 39,000  Level FlightAware
10:22AM 31.3380 74.2590 88° East 553 636 39,000  Level FlightAware
10:23AM 31.3410 74.3790 88° East 554 638 39,000  Level FlightAware
10:23AM 31.3420 74.4670 89° East 556 640 39,000  Level FlightAware
10:24AM 31.3340 74.5800 95° East 557 641 39,000  Level FlightAware
10:24AM 31.3180 74.6750 101° East 557 641 39,000  Level FlightAware
10:25AM 31.2940 74.7800 105° East 556 640 39,000  Level FlightAware
10:26AM 31.2740 74.8690 105° East 556 640 39,000  Level FlightAware
10:26AM 31.2530 74.9600 105° East 556 640 39,000  Level FlightAware
10:27AM 31.2330 75.0490 105° East 556 640 39,000  Level FlightAware
10:28AM 31.2050 75.1680 105° East 556 640 39,000  Level FlightAware
10:28AM 31.1850 75.2570 105° East 556 640 39,000  Level FlightAware
10:29AM 31.1580 75.3750 105° East 556 640 39,000  Level FlightAware
10:30AM 31.1370 75.4640 105° East 556 640 39,000  Level FlightAware
10:30AM 31.1170 75.5530 105° East 556 640 39,000  Level FlightAware
10:31AM 31.0830 75.7010 105° East 556 640 39,000  Level FlightAware
10:32AM 31.0630 75.7890 105° East 556 640 39,000  Level FlightAware
10:32AM 31.0420 75.8810 105° East 556 640 39,000  Level FlightAware
10:33AM 31.0150 75.9990 105° East 556 640 39,000  Level FlightAware
10:34AM 30.9940 76.0880 105° East 556 640 39,000  Level FlightAware
10:36AM 30.7340 76.6140 133° Southeast 39,000  Level FlightAware
10:37AM 30.7273 76.4213 133° Southeast  Level Estimated
10:37AM 30.6700 76.7780 114° Southeast 556 640 39,000  Level FlightAware
10:39AM 30.5180 77.0250 125° Southeast 547 629 39,000  Level FlightAware
10:40AM 30.3930 77.1720 135° Southeast 538 619 39,000  Level FlightAware
10:41AM 30.2240 77.2970 147° Southeast 527 606 39,000  Level FlightAware
10:42AM 30.1540 77.3400 152° Southeast 527 606 39,000  Level FlightAware
10:42AM 30.0600 77.3970 152° Southeast 525 604 39,000  Level FlightAware
10:43AM 29.9840 77.4470 150° Southeast 532 612 39,000  Level FlightAware
10:44AM 29.9190 77.5030 143° Southeast 539 620 39,000  Level FlightAware
10:45AM 29.8030 77.6070 142° Southeast 535 616 39,000  Level FlightAware
10:46AM 29.6380 77.7550 142° Southeast 535 616 39,000  Level FlightAware
10:47AM 29.5130 77.8660 142° Southeast 533 613 39,000  Level FlightAware
10:48AM 29.4180 77.9500 142° Southeast 528 608 39,000  Level FlightAware
10:49AM 29.3270 78.0310 142° Southeast 528 608 39,000  Level FlightAware
10:49AM 29.2560 78.0930 143° Southeast 528 608 39,000  Level FlightAware
10:50AM 29.1860 78.1550 142° Southeast 529 609 39,000  Level FlightAware
10:51AM 29.0470 78.2760 143° Southeast 527 606 39,000  Level FlightAware
10:52AM 28.9690 78.3450 142° Southeast 528 608 39,000  Level FlightAware
10:53AM 28.8610 78.4400 142° Southeast 526 605 39,000  Level FlightAware
10:53AM 28.7900 78.5010 143° Southeast 526 605 39,000  Level FlightAware
10:54AM 28.7250 78.5580 142° Southeast 527 606 39,000  Level FlightAware
10:54AM 28.6330 78.6370 143° Southeast 530 610 39,000  Level FlightAware
10:55AM 28.5570 78.7030 143° Southeast 530 610 39,000  Level FlightAware
10:56AM 28.4930 78.7590 142° Southeast 532 612 39,000  Level FlightAware
10:57AM 28.3880 78.8690 137° Southeast 544 626 39,000  Level FlightAware
10:57AM 28.3700 78.8910 133° Southeast 544 626 39,000  Level FlightAware
10:58AM 28.2830 78.9920 134° Southeast 544 626 39,000  Level FlightAware
10:59AM 28.2120 79.0760 134° Southeast 544 626 39,000  Level FlightAware
10:59AM 28.1580 79.1390 134° Southeast 544 626 39,000  Level FlightAware
11:00AM 28.1230 79.1800 134° Southeast 544 626 39,000  Level FlightAware
11:00AM 28.0660 79.2470 134° Southeast 544 626 39,000  Level FlightAware
11:01AM 27.9590 79.3720 134° Southeast 544 626 39,000  Level FlightAware
11:02AM 27.9060 79.4350 134° Southeast 544 626 39,000  Level FlightAware
11:03AM 27.8360 79.5170 134° Southeast 544 626 39,000  Level FlightAware
11:03AM 27.8000 79.5580 135° Southeast 544 626 39,000  Level FlightAware
11:04AM 27.7290 79.6420 134° Southeast 544 626 39,000  Level FlightAware
11:05AM 27.6750 79.7040 135° Southeast 544 626 39,000  Level FlightAware
11:05AM 27.6020 79.7900 134° Southeast 544 626 39,000  Level FlightAware
11:06AM 27.5490 79.8520 134° Southeast 544 626 39,000  Level FlightAware
11:07AM 27.4950 79.9150 134° Southeast 544 626 39,000  Level FlightAware
11:07AM 27.4400 79.9790 134° Southeast 544 626 39,000  Level FlightAware
11:10AM 27.2163 80.2346 135° Southeast  Level Estimated
11:11AM 27.1145 80.3504 135° Southeast  Level Estimated
11:12AM 27.0126 80.4661 135° Southeast  Level Estimated
11:13AM 26.9106 80.5815 135° Southeast  Level Estimated
11:14AM 26.8085 80.6967 135° Southeast  Level Estimated
11:15AM 26.7063 80.8117 135° Southeast  Level Estimated
11:16AM 26.6040 80.9265 135° Southeast  Level Estimated
11:17AM 26.5016 81.0411 135° Southeast  Level Estimated
11:18AM 26.3992 81.1555 135° Southeast  Level Estimated
11:19AM 26.2966 81.2697 135° Southeast  Level Estimated
11:20AM 26.1940 81.3837 135° Southeast  Level Estimated
11:21AM 26.0912 81.4974 135° Southeast  Level Estimated
11:22AM 25.9884 81.6110 135° Southeast  Level Estimated
11:23AM 25.8855 81.7244 135° Southeast  Level Estimated
11:24AM 25.7825 81.8376 135° Southeast  Level Estimated
11:25AM 25.6794 81.9506 135° Southeast  Level Estimated
11:26AM 25.5762 82.0634 135° Southeast  Level Estimated
11:27AM 25.4729 82.1760 135° Southeast  Level Estimated
11:28AM 25.3696 82.2884 135° Southeast  Level Estimated
11:29AM 25.2661 82.4006 136° Southeast  Level Estimated
11:30AM 25.1626 82.5126 136° Southeast  Level Estimated
11:31AM 25.0590 82.6244 136° Southeast  Level Estimated
11:32AM 24.9553 82.7361 136° Southeast  Level Estimated
11:33AM 24.8515 82.8475 136° Southeast  Level Estimated
11:34AM 24.7477 82.9588 136° Southeast  Level Estimated
11:35AM 24.6437 83.0699 136° Southeast  Level Estimated
11:36AM 24.5397 83.1808 136° Southeast  Level Estimated
11:37AM 24.4356 83.2915 136° Southeast  Level Estimated
11:38AM 24.3314 83.4020 136° Southeast  Level Estimated
11:39AM 24.2272 83.5124 136° Southeast  Level Estimated
11:40AM 24.1228 83.6226 136° Southeast  Level Estimated
11:41AM 24.0184 83.7325 136° Southeast  Level Estimated
11:42AM 23.9139 83.8423 136° Southeast  Level Estimated
11:43AM 23.8093 83.9520 136° Southeast  Level Estimated
11:44AM 23.7047 84.0614 136° Southeast  Level Estimated
11:45AM 23.6000 84.1707 136° Southeast  Level Estimated
11:46AM 23.4951 84.2798 136° Southeast  Level Estimated
11:47AM 23.3903 84.3888 136° Southeast  Level Estimated
11:48AM 23.2853 84.4975 136° Southeast  Level Estimated
11:49AM 23.1803 84.6061 136° Southeast  Level Estimated
11:50AM 23.0752 84.7145 136° Southeast  Level Estimated
11:51AM 22.9700 84.8228 137° Southeast  Level Estimated
11:52AM 22.8647 84.9309 137° Southeast  Level Estimated
11:52AM 23.2180 85.6620 137° Southeast 505 581 39,000  Level FlightAware
11:52AM 23.1220 85.7350 145° Southeast 503 579 39,000  Level FlightAware
11:53AM 23.0520 85.7890 145° Southeast 503 579 39,000  Level FlightAware
11:54AM 22.9820 85.8420 145° Southeast 504 580 39,000  Level FlightAware
11:54AM 22.8880 85.9150 144° Southeast 502 578 39,000  Level FlightAware
11:55AM 22.7650 86.0080 145° Southeast 498 573 39,000  Level FlightAware
11:56AM 22.6870 86.0680 145° Southeast 499 574 39,000  Level FlightAware
11:57AM 22.6160 86.1220 145° Southeast 501 577 39,000  Level FlightAware
11:57AM 22.5550 86.1690 145° Southeast 502 578 39,000  Level FlightAware
11:58AM 22.5060 86.2060 145° Southeast 503 579 39,000  Level FlightAware
11:59AM 22.3980 86.2880 145° Southeast 503 579 39,000  Level FlightAware
11:59AM 22.3220 86.3450 145° Southeast 504 580 39,000  Level FlightAware
12:01PM 22.1830 86.4510 145° Southeast 503 579 39,000  Level FlightAware
12:01PM 22.0850 86.5250 145° Southeast 503 579 39,000  Level FlightAware
12:02PM 22.0340 86.5640 145° Southeast 504 580 39,000  Level FlightAware
12:03PM 21.9690 86.6130 145° Southeast 503 579 39,000  Level FlightAware
12:03PM 21.8630 86.6920 145° Southeast 504 580 39,000  Level FlightAware
12:04PM 21.8120 86.7310 145° Southeast 503 579 39,000  Level FlightAware
12:04PM 21.7530 86.7770 144° Southeast 503 579 39,000  Level FlightAware
12:05PM 21.6900 86.8220 146° Southeast 502 578 39,000  Level FlightAware
12:05PM 21.6320 86.8660 145° Southeast 504 580 39,000  Level FlightAware
12:06PM 21.5620 86.9180 145° Southeast 505 581 39,000  Level FlightAware
12:07PM 21.4850 86.9750 145° Southeast 504 580 39,000  Level FlightAware
12:07PM 21.4230 87.0220 145° Southeast 502 578 39,000  Level FlightAware
12:08PM 21.3630 87.0670 145° Southeast 502 578 39,000  Level FlightAware
12:09PM 21.2270 87.1680 145° Southeast 501 577 39,000  Level FlightAware
12:09PM 21.1740 87.2080 145° Southeast 498 573 39,000  Level FlightAware
12:10PM 21.0990 87.2640 145° Southeast 497 572 39,000  Level FlightAware
12:11PM 20.9850 87.3490 145° Southeast 494 568 39,000  Level FlightAware
12:12PM 20.9180 87.3980 146° Southeast 494 568 39,000  Level FlightAware
12:12PM 20.8380 87.4570 145° Southeast 492 566 39,000  Level FlightAware
12:13PM 20.7480 87.5240 145° Southeast 492 566 39,000  Level FlightAware
12:14PM 20.6940 87.5640 145° Southeast 491 565 39,000  Level FlightAware
12:14PM 20.6270 87.6130 146° Southeast 490 564 39,000  Level FlightAware
12:15PM 20.5530 87.6680 145° Southeast 493 567 39,000  Level FlightAware
12:16PM 20.4780 87.7230 146° Southeast 492 566 39,000  Level FlightAware
12:16PM 20.4090 87.7730 146° Southeast 493 567 39,000  Level FlightAware
12:17PM 20.3630 87.8070 145° Southeast 492 566 39,000  Level FlightAware
12:17PM 20.2890 87.8620 145° Southeast 490 564 39,000  Level FlightAware
12:18PM 20.2510 87.8890 146° Southeast 490 564 39,000  Level FlightAware
12:19PM 20.1690 87.9500 145° Southeast 490 564 39,000  Level FlightAware
12:20PM 20.0340 88.0480 146° Southeast 483 556 39,000  Level FlightAware
12:20PM 19.9720 88.0940 145° Southeast 483 556 39,000  Level FlightAware
12:21PM 19.9150 88.1360 145° Southeast 483 556 39,000  Level FlightAware
12:21PM 19.8560 88.1800 145° Southeast 483 556 39,000  Level FlightAware
12:22PM 19.7830 88.2350 145° Southeast 483 556 39,000  Level FlightAware
12:23PM 19.7270 88.2760 145° Southeast 483 556 39,000  Level FlightAware
12:24PM 19.6150 88.3600 145° Southeast 483 556 39,000  Level FlightAware
12:25PM 19.4340 88.4840 147° Southeast 485 558 39,000  Level FlightAware
12:25PM 19.4120 88.5000 146° Southeast 484 557 39,000  Level FlightAware
12:26PM 19.3500 88.5460 145° Southeast 484 557 39,000  Level FlightAware
12:27PM 19.2750 88.6020 145° Southeast 484 557 39,000  Level FlightAware
12:27PM 19.2140 88.6470 145° Southeast 484 557 39,000  Level FlightAware
12:28PM 19.1580 88.6880 145° Southeast 484 557 39,000  Level FlightAware
12:28PM 19.1020 88.7300 145° Southeast 484 557 39,000  Level FlightAware
12:29PM 19.0070 88.8000 145° Southeast 484 557 39,000  Level FlightAware
12:30PM 18.9490 88.8430 145° Southeast 484 557 39,000  Level FlightAware
12:30PM 18.9120 88.8710 144° Southeast 484 557 39,000  Level FlightAware
12:31PM 18.8370 88.9260 145° Southeast 484 557 39,000  Level FlightAware
12:32PM 18.7810 88.9680 145° Southeast 484 557 39,000  Level FlightAware
12:32PM 18.7250 89.0090 145° Southeast 484 557 39,000  Level FlightAware
12:33PM 18.6670 89.0520 145° Southeast 484 557 39,000  Level FlightAware
12:34PM 18.6110 89.0930 145° Southeast 484 557 39,000  Level FlightAware
12:35PM 18.4970 89.1770 145° Southeast 484 557 39,000  Level FlightAware
12:38PM 18.2131 89.4455 138° Southeast  Level Estimated
12:39PM 18.1052 89.5473 138° Southeast  Level Estimated
12:40PM 17.9973 89.6489 138° Southeast  Level Estimated
12:41PM 17.8893 89.7504 138° Southeast  Level Estimated
12:42PM 17.7812 89.8518 138° Southeast  Level Estimated
12:43PM 17.6731 89.9530 138° Southeast  Level Estimated
12:44PM 17.5650 90.0542 138° Southeast  Level Estimated
12:45PM 17.4568 90.1552 138° Southeast  Level Estimated
12:46PM 17.3485 90.2561 138° Southeast  Level Estimated
12:47PM 17.2402 90.3568 138° Southeast  Level Estimated
12:48PM 17.1318 90.4575 138° Southeast  Level Estimated
12:49PM 17.0234 90.5580 138° Southeast  Level Estimated
12:50PM 16.9149 90.6584 138° Southeast  Level Estimated
12:51PM 16.8064 90.7588 138° Southeast  Level Estimated
12:52PM 16.6979 90.8589 139° Southeast  Level Estimated
12:53PM 16.5893 90.9590 139° Southeast  Level Estimated
12:54PM 16.4806 91.0590 139° Southeast  Level Estimated
12:55PM 16.3719 91.1588 139° Southeast  Level Estimated
12:56PM 16.2632 91.2586 139° Southeast  Level Estimated
12:57PM 16.1544 91.3582 139° Southeast  Level Estimated
12:58PM 16.0455 91.4577 139° Southeast  Level Estimated
12:59PM 15.9366 91.5571 139° Southeast  Level Estimated
01:00PM 15.8277 91.6564 139° Southeast  Level Estimated
01:01PM 15.7187 91.7556 139° Southeast  Level Estimated
01:02PM 15.6097 91.8547 139° Southeast  Level Estimated
01:03PM 15.5006 91.9537 139° Southeast  Level Estimated
01:04PM 15.3915 92.0526 139° Southeast  Level Estimated
01:05PM 15.2824 92.1514 139° Southeast  Level Estimated
01:06PM 15.1732 92.2500 139° Southeast  Level Estimated
01:07PM 15.0639 92.3486 139° Southeast  Level Estimated
01:08PM 14.9547 92.4471 139° Southeast  Level Estimated
01:09PM 14.8453 92.5454 139° Southeast  Level Estimated
01:10PM 14.7360 92.6437 139° Southeast  Level Estimated
01:11PM 14.6265 92.7419 139° Southeast  Level Estimated
01:12PM 14.5171 92.8400 139° Southeast  Level Estimated
01:13PM 14.4076 92.9379 139° Southeast  Level Estimated
01:14PM 14.2981 93.0358 139° Southeast  Level Estimated
01:15PM 14.1885 93.1336 139° Southeast  Level Estimated
01:16PM 14.0789 93.2313 139° Southeast  Level Estimated
01:17PM 13.9692 93.3289 139° Southeast  Level Estimated
01:18PM 13.8596 93.4264 139° Southeast  Level Estimated
01:19PM 13.7498 93.5238 139° Southeast  Level Estimated
01:20PM 13.6401 93.6211 139° Southeast  Level Estimated
01:21PM 13.5303 93.7184 139° Southeast  Level Estimated
01:22PM 13.4204 93.8155 139° Southeast  Level Estimated
01:23PM 13.3105 93.9125 139° Southeast  Level Estimated
01:24PM 13.2006 94.0095 139° Southeast  Level Estimated
01:25PM 13.0907 94.1064 139° Southeast  Level Estimated
01:26PM 12.9807 94.2032 139° Southeast  Level Estimated
01:27PM 12.8707 94.2999 139° Southeast  Level Estimated
01:28PM 12.7606 94.3965 139° Southeast  Level Estimated
01:29PM 12.6505 94.4930 139° Southeast  Level Estimated
01:30PM 12.5404 94.5895 139° Southeast  Level Estimated
01:31PM 12.4302 94.6859 139° Southeast  Level Estimated
01:32PM 12.3200 94.7821 140° Southeast  Level Estimated
01:33PM 12.2098 94.8783 140° Southeast  Level Estimated
01:34PM 12.0995 94.9745 140° Southeast  Level Estimated
01:35PM 11.9892 95.0705 140° Southeast  Level Estimated
01:36PM 11.8789 95.1665 140° Southeast  Level Estimated
01:37PM 11.7685 95.2624 140° Southeast  Level Estimated
01:38PM 11.6582 95.3582 140° Southeast  Level Estimated
01:39PM 11.5477 95.4539 140° Southeast  Level Estimated
01:40PM 11.4373 95.5496 140° Southeast  Level Estimated
01:41PM 11.3268 95.6452 140° Southeast  Level Estimated
01:42PM 11.2163 95.7407 140° Southeast  Level Estimated
01:43PM 11.1057 95.8361 140° Southeast  Level Estimated
01:44PM 10.9951 95.9315 140° Southeast  Level Estimated
01:45PM 10.8845 96.0268 140° Southeast  Level Estimated
01:46PM 10.7739 96.1220 140° Southeast  Level Estimated
01:47PM 10.6632 96.2172 140° Southeast  Level Estimated
01:48PM 10.5525 96.3123 140° Southeast  Level Estimated
01:49PM 10.4418 96.4073 140° Southeast  Level Estimated
01:50PM 10.3310 96.5023 140° Southeast  Level Estimated
01:51PM 10.2203 96.5972 140° Southeast  Level Estimated
01:51PM 11.4170 96.6390 140° Southeast 450 518 41,000  Level FlightAware
01:51PM 11.3880 96.6540 153° Southeast 452 520 41,000  Level FlightAware
01:52PM 11.3000 96.6980 154° Southeast 453 521 41,000  Level FlightAware
01:53PM 11.1790 96.7610 153° Southeast 453 521 41,000  Level FlightAware
01:54PM 11.0930 96.8030 154° Southeast 453 521 41,000  Level FlightAware
01:54PM 11.0320 96.8350 153° Southeast 453 521 41,000  Level FlightAware
01:55PM 10.9430 96.8790 154° Southeast 455 524 41,000  Level FlightAware
01:56PM 10.8590 96.9220 153° Southeast 457 526 41,000  Level FlightAware
01:56PM 10.8250 96.9390 154° Southeast 457 526 41,000  Level FlightAware
01:57PM 10.7190 96.9930 153° Southeast 458 527 41,000  Level FlightAware
01:58PM 10.6330 97.0360 154° Southeast 459 528 41,000  Level FlightAware
01:58PM 10.5620 97.0720 154° Southeast 460 529 41,000  Level FlightAware
01:59PM 10.5000 97.1030 154° Southeast 461 531 41,000  Level FlightAware
02:00PM 10.3510 97.1980 148° Southeast 464 534 41,000  Level FlightAware
02:01PM 10.2850 97.2400 148° Southeast 464 534 41,000  Level FlightAware
02:01PM 10.2100 97.2890 147° Southeast 464 534 41,000  Level FlightAware
02:02PM 10.1370 97.3360 148° Southeast 466 536 41,000  Level FlightAware
02:03PM 10.0790 97.3740 147° Southeast 466 536 41,000  Level FlightAware
02:04PM 9.9560 97.4530 148° Southeast 464 534 41,000  Level FlightAware
02:04PM 9.8790 97.5030 147° Southeast 466 536 41,000  Level FlightAware
02:05PM 9.7980 97.5550 148° Southeast 462 532 41,000  Level FlightAware
02:06PM 9.7270 97.6000 148° Southeast 461 531 41,000  Level FlightAware
02:06PM 9.6580 97.6450 147° Southeast 462 532 41,000  Level FlightAware
02:07PM 9.5910 97.6880 148° Southeast 462 532 41,000  Level FlightAware
02:08PM 9.5190 97.7340 148° Southeast 460 529 41,000  Level FlightAware
02:08PM 9.4470 97.7810 147° Southeast 461 531 41,000  Level FlightAware
02:09PM 9.3610 97.8360 148° Southeast 467 537 41,000  Level FlightAware
02:10PM 9.2940 97.8790 148° Southeast 469 540 41,000  Level FlightAware
02:10PM 9.2220 97.9250 148° Southeast 467 537 41,000  Level FlightAware
02:11PM 9.1410 97.9770 148° Southeast 462 532 41,000  Level FlightAware
02:12PM 9.0950 98.0070 147° Southeast 461 531 41,000  Level FlightAware
02:12PM 9.0270 98.0500 148° Southeast 459 528 41,000  Level FlightAware
02:13PM 8.9670 98.0880 148° Southeast 460 529 41,000  Level FlightAware
02:13PM 8.9020 98.1300 147° Southeast 464 534 41,000  Level FlightAware
02:14PM 8.8360 98.1720 148° Southeast 464 534 41,000  Level FlightAware
02:15PM 8.7660 98.2170 148° Southeast 467 537 41,000  Level FlightAware
02:16PM 8.6440 98.2950 148° Southeast 462 532 41,000  Level FlightAware
02:16PM 8.5780 98.3370 148° Southeast 462 532 41,000  Level FlightAware
02:17PM 8.5060 98.3830 148° Southeast 464 534 41,000  Level FlightAware
02:18PM 8.4470 98.4200 148° Southeast 463 533 41,000  Level FlightAware
02:18PM 8.3740 98.4670 148° Southeast 463 533 41,000  Level FlightAware
02:19PM 8.3030 98.5130 147° Southeast 463 533 41,000  Level FlightAware
02:20PM 8.2390 98.5540 148° Southeast 464 534 41,000  Level FlightAware
02:20PM 8.1400 98.6170 148° Southeast 462 532 41,000  Level FlightAware
02:21PM 8.0610 98.6670 148° Southeast 458 527 41,000  Level FlightAware
02:22PM 8.0040 98.7030 148° Southeast 459 528 41,000  Level FlightAware
02:22PM 7.9480 98.7390 148° Southeast 460 529 41,000  Level FlightAware
02:23PM 7.8660 98.7910 148° Southeast 463 533 41,000  Level FlightAware
02:23PM 7.8070 98.8280 148° Southeast 466 536 41,000  Level FlightAware
02:24PM 7.7330 98.8750 148° Southeast 470 541 41,000  Level FlightAware
02:25PM 7.6440 98.9320 148° Southeast 466 536 41,000  Level FlightAware
02:25PM 7.5870 98.9680 148° Southeast 462 532 41,000  Level FlightAware
02:26PM 7.5160 99.0130 148° Southeast 463 533 41,000  Level FlightAware
02:27PM 7.4350 99.0650 148° Southeast 465 535 41,000  Level FlightAware
02:28PM 7.3100 99.1440 148° Southeast 463 533 41,000  Level FlightAware
02:29PM 7.1940 99.2170 148° Southeast 463 533 41,000  Level FlightAware
02:30PM 7.1130 99.2680 148° Southeast 463 533 41,000  Level FlightAware
02:30PM 7.0570 99.3040 147° Southeast 462 532 41,000  Level FlightAware
02:31PM 6.9680 99.3610 148° Southeast 461 531 41,000  Level FlightAware
02:32PM 6.8600 99.4290 148° Southeast 460 529 41,000  Level FlightAware
02:33PM 6.8060 99.4630 148° Southeast 461 531 41,000  Level FlightAware
02:33PM 6.7460 99.5010 148° Southeast 460 529 41,000  Level FlightAware
02:34PM 6.6700 99.5490 148° Southeast 458 527 41,000  Level FlightAware
02:34PM 6.6170 99.5820 148° Southeast 456 525 41,000  Level FlightAware
02:35PM 6.5650 99.6150 148° Southeast 456 525 41,000  Level FlightAware
02:36PM 6.4960 99.6590 148° Southeast 456 525 41,000  Level FlightAware
02:36PM 6.4490 99.6880 148° Southeast 458 527 41,000  Level FlightAware
02:37PM 6.3840 99.7290 148° Southeast 458 527 41,000  Level FlightAware
02:37PM 6.3200 99.7680 149° Southeast 459 528 41,000  Level FlightAware
02:38PM 6.2400 99.8120 151° Southeast 460 529 41,000  Level FlightAware
02:39PM 6.1540 99.8600 151° Southeast 458 527 41,000  Level FlightAware
02:39PM 6.0980 99.8910 151° Southeast 459 528 41,000  Level FlightAware
02:40PM 6.0020 99.9450 151° Southeast 462 532 41,000  Level FlightAware
02:41PM 5.9260 99.9880 151° Southeast 461 531 41,000  Level FlightAware
02:41PM 5.8700 100.0190 151° Southeast 461 531 41,000  Level FlightAware
02:42PM 5.8090 100.0530 151° Southeast 461 531 41,000  Level FlightAware
02:42PM 5.7480 100.0880 150° Southeast 461 531 41,000  Level FlightAware
02:43PM 5.6730 100.1300 151° Southeast 461 531 41,000  Level FlightAware
02:44PM 5.6010 100.1700 151° Southeast 461 531 41,000  Level FlightAware
02:45PM 5.4790 100.2390 151° Southeast 459 528 41,000  Level FlightAware
02:45PM 5.4120 100.2760 151° Southeast 460 529 41,000  Level FlightAware
02:46PM 5.3380 100.3170 151° Southeast 461 531 41,000  Level FlightAware
02:46PM 5.2850 100.3470 151° Southeast 460 529 41,000  Level FlightAware
02:47PM 5.1990 100.3950 151° Southeast 456 525 41,000  Level FlightAware
02:48PM 5.1430 100.4270 150° Southeast 455 524 41,000  Level FlightAware
02:48PM 5.0700 100.4680 151° Southeast 454 522 41,000  Level FlightAware
02:49PM 4.9690 100.5240 151° Southeast 454 522 41,000  Level FlightAware
02:50PM 4.8670 100.5810 151° Southeast 457 526 41,000  Level FlightAware
02:52PM 4.7180 100.6640 151° Southeast 459 528 41,000  Level FlightAware
02:52PM 4.6570 100.6990 150° Southeast 458 527 41,000  Level FlightAware
02:53PM 4.5990 100.7310 151° Southeast 456 525 41,000  Level FlightAware
02:53PM 4.5430 100.7630 150° Southeast 455 524 41,000  Level FlightAware
02:54PM 4.4260 100.8280 151° Southeast 457 526 41,000  Level FlightAware
02:55PM 4.3580 100.8660 151° Southeast 459 528 41,000  Level FlightAware
02:56PM 4.2500 100.9260 151° Southeast 464 534 41,000  Level FlightAware
02:57PM 4.1050 101.0070 151° Southeast 466 536 41,000  Level FlightAware
02:58PM 4.0300 101.0490 151° Southeast 464 534 41,000  Level FlightAware
02:58PM 3.9630 101.0860 151° Southeast 464 534 41,000  Level FlightAware
02:59PM 3.9000 101.1220 150° Southeast 462 532 41,000  Level FlightAware
03:00PM 3.8140 101.1690 151° Southeast 462 532 41,000  Level FlightAware
03:00PM 3.7370 101.2130 150° Southeast 459 528 41,000  Level FlightAware
03:01PM 3.6750 101.2470 151° Southeast 457 526 41,000  Level FlightAware
03:02PM 3.5560 101.3130 151° Southeast 458 527 41,000  Level FlightAware
03:03PM 3.4820 101.3550 150° Southeast 460 529 41,000  Level FlightAware
03:03PM 3.4300 101.3840 151° Southeast 462 532 41,000  Level FlightAware
03:04PM 3.3540 101.4260 151° Southeast 462 532 41,000  Level FlightAware
03:04PM 3.2920 101.4600 151° Southeast 459 528 41,000  Level FlightAware
03:05PM 3.2130 101.5050 150° Southeast 460 529 41,000  Level FlightAware
03:05PM 3.1740 101.5260 152° Southeast 460 529 41,000  Level FlightAware
03:06PM 3.0930 101.5710 151° Southeast 460 529 41,000  Level FlightAware
03:07PM 3.0130 101.6160 151° Southeast 462 532 41,000  Level FlightAware
03:07PM 2.9400 101.6600 149° Southeast 454 522 41,000  Level FlightAware
03:08PM 2.8560 101.7510 133° Southeast 462 532 41,000  Level FlightAware
03:09PM 2.7960 101.8170 132° Southeast 463 533 41,000  Level FlightAware
03:09PM 2.7680 101.8480 132° Southeast 459 528 41,000  Level FlightAware
03:10PM 2.7050 101.9180 132° Southeast 465 535 41,000  Level FlightAware
03:10PM 2.6810 101.9450 132° Southeast 464 534 41,000  Level FlightAware
03:11PM 2.5940 102.0400 133° Southeast 463 533 41,000  Level FlightAware
03:12PM 2.5280 102.1130 132° Southeast 463 533 41,000 -360 Level FlightAware
03:13PM 2.4690 102.1780 132° Southeast 463 533 40,500 -900 Descending FlightAware
03:13PM 2.4250 102.2270 132° Southeast 469 540 39,900 -1,200 Descending FlightAware
03:14PM 2.3670 102.2910 132° Southeast 473 544 39,100 -1,200 Descending FlightAware
03:15PM 2.3080 102.3560 132° Southeast 477 549 38,400 -1,140 Descending FlightAware
03:15PM 2.2560 102.4130 132° Southeast 479 551 37,700 -1,440 Descending FlightAware
03:16PM 2.1940 102.4820 132° Southeast 484 557 36,600 -2,340 Descending FlightAware
03:17PM 2.1350 102.5470 132° Southeast 487 560 34,600 -2,880 Descending FlightAware
03:17PM 2.0830 102.6040 132° Southeast 487 560 33,100 -1,740 Descending FlightAware
03:18PM 2.0530 102.6380 131° Southeast 477 549 32,300 -1,380 Descending FlightAware
03:19PM 2.0070 102.6880 133° Southeast 468 539 31,300 -2,100 Descending FlightAware
03:20PM 1.8990 102.8070 132° Southeast 482 555 28,700 -2,400 Descending FlightAware
03:21PM 1.8000 102.9170 132° Southeast 464 534 26,200 -2,340 Descending FlightAware
03:21PM 1.7420 102.9800 133° Southeast 450 518 24,800 -1,980 Descending FlightAware
03:22PM 1.6980 103.0290 132° Southeast 436 502 23,900 -1,380 Descending FlightAware
03:23PM 1.6240 103.1080 133° Southeast 383 441 23,200 -1,200 Descending FlightAware
03:24PM 1.5450 103.1660 144° Southeast 356 410 22,000 -1,440 Descending FlightAware
03:24PM 1.4960 103.1990 146° Southeast 353 406 21,000 -1,620 Descending FlightAware
03:25PM 1.4580 103.2410 132° Southeast 338 389 20,100 -1,980 Descending FlightAware
03:25PM 1.4190 103.2940 126° Southeast 328 377 18,500 -2,460 Descending FlightAware
03:26PM 1.3830 103.3420 127° Southeast 316 364 16,700 -2,820 Descending FlightAware
03:27PM 1.3520 103.3840 126° Southeast 310 357 14,900 -2,940 Descending FlightAware
03:27PM 1.3190 103.4290 126° Southeast 307 353 13,000 -2,760 Descending FlightAware
03:28PM 1.2690 103.4980 126° Southeast 296 341 10,300 -2,700 Descending FlightAware
03:29PM 1.2460 103.5310 125° Southeast 289 333 9,000 -2,400 Descending FlightAware
03:29PM 1.2260 103.5590 126° Southeast 286 329 7,900 -2,040 Descending FlightAware
03:30PM 1.1930 103.6070 125° Southeast 285 328 6,600 -1,680 Descending FlightAware
03:31PM 1.1640 103.6500 124° Southeast 280 322 5,600 -1,080 Descending FlightAware
03:31PM 1.1440 103.6830 121° Southeast 280 322 5,300 -1,260 Descending FlightAware
03:32PM 1.1560 103.7330 77° East 270 311 4,300 -1,200 Descending FlightAware
03:32PM 1.1560 103.7670 90° East 256 295 4,100 -540 Descending FlightAware
03:33PM 1.1560 103.8000 90° East 235 270 3,800 -840 Descending FlightAware
03:33PM 1.1550 103.8390 91° East 230 265 3,200 -780 Descending FlightAware
03:34PM 1.1550 103.8590 90° East 218 251 3,100 -540 Descending FlightAware
03:35PM 1.1750 103.9000 64° Northeast 184 212 2,600 -360 Descending FlightAware
03:35PM 1.2020 103.9150 29° Northeast 193 222 2,600 -180 Level FlightAware
03:36PM 1.2360 103.9300 24° Northeast 176 203 2,400 -540 Descending FlightAware
03:36PM 1.2580 103.9390 22° Northeast 169 194 2,000 -900 Descending FlightAware
03:37PM 1.2900 103.9520 22° Northeast 142 163 1,300 -840 Descending FlightAware
03:38PM 1.3160 103.9640 25° Northeast 138 159 800 -660 Descending FlightAware
03:38PM 1.3350 103.9720 23° Northeast 141 162 500 -600 Descending FlightAware
03:39PM 1.3590 103.9820 23° Northeast 130 150 -780 Descending FlightAware
03:40PM 1.3720 103.9870 21° North 115 132  Level FlightAware